<?xml version="1.0" encoding="UTF-8" standalone="no" ?>
<gpx xmlns="http://www.topografix.com/GPX/1/1" xmlns:xsi="http://www.w3.org/2001/XMLSchema-instance" xsi:schemaLocation="http://www.topografix.com/GPX/1/1 http://www.topografix.com/GPX/1/1/gpx.xsd" version="1.1" creator="VisuGPX - https://www.visugpx.com">
  <metadata>
    <name>Col W de Balafrasse</name>
    <desc><![CDATA[En A/R par la combe sous Pointe Blanche]]></desc>
  </metadata>
  <trk>
    <name><![CDATA[20180419171153-zAgy4]]></name>
    <trkseg>
      <trkpt lat="45.97837" lon="6.46846">
        <ele>1415</ele>
        <time>2018-04-14T06:45:14Z</time>
      </trkpt>
      <trkpt lat="45.97838" lon="6.46846">
        <ele>1415</ele>
        <time>2018-04-14T06:45:15Z</time>
      </trkpt>
      <trkpt lat="45.97838" lon="6.46845">
        <ele>1415</ele>
        <time>2018-04-14T06:45:16Z</time>
      </trkpt>
      <trkpt lat="45.9784" lon="6.46844">
        <ele>1415</ele>
        <time>2018-04-14T06:45:17Z</time>
      </trkpt>
      <trkpt lat="45.97842" lon="6.46842">
        <ele>1415</ele>
        <time>2018-04-14T06:45:19Z</time>
      </trkpt>
      <trkpt lat="45.97843" lon="6.46841">
        <ele>1415</ele>
        <time>2018-04-14T06:45:20Z</time>
      </trkpt>
      <trkpt lat="45.97845" lon="6.46839">
        <ele>1415</ele>
        <time>2018-04-14T06:45:21Z</time>
      </trkpt>
      <trkpt lat="45.97849" lon="6.46835">
        <ele>1416</ele>
        <time>2018-04-14T06:45:24Z</time>
      </trkpt>
      <trkpt lat="45.97849" lon="6.46834">
        <ele>1417</ele>
        <time>2018-04-14T06:45:25Z</time>
      </trkpt>
      <trkpt lat="45.97854" lon="6.46829">
        <ele>1413</ele>
        <time>2018-04-14T06:45:28Z</time>
      </trkpt>
      <trkpt lat="45.9786" lon="6.46817">
        <ele>1414</ele>
        <time>2018-04-14T06:45:35Z</time>
      </trkpt>
      <trkpt lat="45.97863" lon="6.46806">
        <ele>1415</ele>
        <time>2018-04-14T06:45:42Z</time>
      </trkpt>
      <trkpt lat="45.97866" lon="6.46799">
        <ele>1415</ele>
        <time>2018-04-14T06:45:47Z</time>
      </trkpt>
      <trkpt lat="45.97869" lon="6.46792">
        <ele>1415</ele>
        <time>2018-04-14T06:45:51Z</time>
      </trkpt>
      <trkpt lat="45.97872" lon="6.46786">
        <ele>1415</ele>
        <time>2018-04-14T06:45:55Z</time>
      </trkpt>
      <trkpt lat="45.97875" lon="6.46778">
        <ele>1415</ele>
        <time>2018-04-14T06:45:59Z</time>
      </trkpt>
      <trkpt lat="45.97878" lon="6.46768">
        <ele>1415</ele>
        <time>2018-04-14T06:46:04Z</time>
      </trkpt>
      <trkpt lat="45.97881" lon="6.4676">
        <ele>1415</ele>
        <time>2018-04-14T06:46:09Z</time>
      </trkpt>
      <trkpt lat="45.97882" lon="6.46756">
        <ele>1415</ele>
        <time>2018-04-14T06:46:11Z</time>
      </trkpt>
      <trkpt lat="45.97882" lon="6.46755">
        <ele>1416</ele>
        <time>2018-04-14T06:46:12Z</time>
      </trkpt>
      <trkpt lat="45.97883" lon="6.46753">
        <ele>1416</ele>
        <time>2018-04-14T06:46:13Z</time>
      </trkpt>
      <trkpt lat="45.97884" lon="6.46752">
        <ele>1416</ele>
        <time>2018-04-14T06:46:14Z</time>
      </trkpt>
      <trkpt lat="45.97885" lon="6.4675">
        <ele>1410</ele>
        <time>2018-04-14T06:46:15Z</time>
      </trkpt>
      <trkpt lat="45.97886" lon="6.46747">
        <ele>1410</ele>
        <time>2018-04-14T06:46:16Z</time>
      </trkpt>
      <trkpt lat="45.97886" lon="6.46746">
        <ele>1410</ele>
        <time>2018-04-14T06:46:17Z</time>
      </trkpt>
      <trkpt lat="45.97886" lon="6.46744">
        <ele>1410</ele>
        <time>2018-04-14T06:46:18Z</time>
      </trkpt>
      <trkpt lat="45.97887" lon="6.46742">
        <ele>1410</ele>
        <time>2018-04-14T06:46:19Z</time>
      </trkpt>
      <trkpt lat="45.97889" lon="6.4674">
        <ele>1410</ele>
        <time>2018-04-14T06:46:20Z</time>
      </trkpt>
      <trkpt lat="45.97889" lon="6.46739">
        <ele>1410</ele>
        <time>2018-04-14T06:46:21Z</time>
      </trkpt>
      <trkpt lat="45.9789" lon="6.46737">
        <ele>1410</ele>
        <time>2018-04-14T06:46:22Z</time>
      </trkpt>
      <trkpt lat="45.97891" lon="6.46734">
        <ele>1410</ele>
        <time>2018-04-14T06:46:23Z</time>
      </trkpt>
      <trkpt lat="45.97891" lon="6.46732">
        <ele>1410</ele>
        <time>2018-04-14T06:46:24Z</time>
      </trkpt>
      <trkpt lat="45.97909" lon="6.46703">
        <ele>1410</ele>
        <time>2018-04-14T06:46:43Z</time>
      </trkpt>
      <trkpt lat="45.97943" lon="6.46671">
        <ele>1427</ele>
        <time>2018-04-14T06:47:11Z</time>
      </trkpt>
      <trkpt lat="45.97973" lon="6.46643">
        <ele>1423</ele>
        <time>2018-04-14T06:47:38Z</time>
      </trkpt>
      <trkpt lat="45.97998" lon="6.46619">
        <ele>1421</ele>
        <time>2018-04-14T06:48:00Z</time>
      </trkpt>
      <trkpt lat="45.9803" lon="6.46594">
        <ele>1433</ele>
        <time>2018-04-14T06:48:28Z</time>
      </trkpt>
      <trkpt lat="45.98057" lon="6.46583">
        <ele>1436</ele>
        <time>2018-04-14T06:48:50Z</time>
      </trkpt>
      <trkpt lat="45.98085" lon="6.46575">
        <ele>1434</ele>
        <time>2018-04-14T06:49:11Z</time>
      </trkpt>
      <trkpt lat="45.9811" lon="6.46569">
        <ele>1434</ele>
        <time>2018-04-14T06:49:31Z</time>
      </trkpt>
      <trkpt lat="45.98122" lon="6.46567">
        <ele>1435</ele>
        <time>2018-04-14T06:49:40Z</time>
      </trkpt>
      <trkpt lat="45.98124" lon="6.46567">
        <ele>1435</ele>
        <time>2018-04-14T06:49:41Z</time>
      </trkpt>
      <trkpt lat="45.98125" lon="6.46566">
        <ele>1436</ele>
        <time>2018-04-14T06:49:42Z</time>
      </trkpt>
      <trkpt lat="45.9814" lon="6.46561">
        <ele>1437</ele>
        <time>2018-04-14T06:49:53Z</time>
      </trkpt>
      <trkpt lat="45.98171" lon="6.46557">
        <ele>1447</ele>
        <time>2018-04-14T06:50:21Z</time>
      </trkpt>
      <trkpt lat="45.98201" lon="6.46549">
        <ele>1447</ele>
        <time>2018-04-14T06:50:45Z</time>
      </trkpt>
      <trkpt lat="45.98203" lon="6.46549">
        <ele>1447</ele>
        <time>2018-04-14T06:50:48Z</time>
      </trkpt>
      <trkpt lat="45.98223" lon="6.46546">
        <ele>1448</ele>
        <time>2018-04-14T06:51:08Z</time>
      </trkpt>
      <trkpt lat="45.98256" lon="6.46533">
        <ele>1453</ele>
        <time>2018-04-14T06:51:33Z</time>
      </trkpt>
      <trkpt lat="45.98257" lon="6.46532">
        <ele>1453</ele>
        <time>2018-04-14T06:51:34Z</time>
      </trkpt>
      <trkpt lat="45.98258" lon="6.46532">
        <ele>1453</ele>
        <time>2018-04-14T06:51:35Z</time>
      </trkpt>
      <trkpt lat="45.98264" lon="6.46528">
        <ele>1452</ele>
        <time>2018-04-14T06:51:40Z</time>
      </trkpt>
      <trkpt lat="45.98265" lon="6.46528">
        <ele>1452</ele>
        <time>2018-04-14T06:51:41Z</time>
      </trkpt>
      <trkpt lat="45.98266" lon="6.46528">
        <ele>1453</ele>
        <time>2018-04-14T06:51:42Z</time>
      </trkpt>
      <trkpt lat="45.9827" lon="6.46529">
        <ele>1453</ele>
        <time>2018-04-14T06:51:45Z</time>
      </trkpt>
      <trkpt lat="45.98271" lon="6.46529">
        <ele>1453</ele>
        <time>2018-04-14T06:51:46Z</time>
      </trkpt>
      <trkpt lat="45.98273" lon="6.46529">
        <ele>1453</ele>
        <time>2018-04-14T06:51:47Z</time>
      </trkpt>
      <trkpt lat="45.98276" lon="6.46528">
        <ele>1453</ele>
        <time>2018-04-14T06:51:49Z</time>
      </trkpt>
      <trkpt lat="45.98277" lon="6.46528">
        <ele>1454</ele>
        <time>2018-04-14T06:51:50Z</time>
      </trkpt>
      <trkpt lat="45.98279" lon="6.46527">
        <ele>1454</ele>
        <time>2018-04-14T06:51:51Z</time>
      </trkpt>
      <trkpt lat="45.9828" lon="6.46527">
        <ele>1454</ele>
        <time>2018-04-14T06:51:52Z</time>
      </trkpt>
      <trkpt lat="45.98281" lon="6.46527">
        <ele>1454</ele>
        <time>2018-04-14T06:51:53Z</time>
      </trkpt>
      <trkpt lat="45.98283" lon="6.46527">
        <ele>1454</ele>
        <time>2018-04-14T06:51:54Z</time>
      </trkpt>
      <trkpt lat="45.98284" lon="6.46527">
        <ele>1454</ele>
        <time>2018-04-14T06:51:55Z</time>
      </trkpt>
      <trkpt lat="45.98285" lon="6.46527">
        <ele>1454</ele>
        <time>2018-04-14T06:51:56Z</time>
      </trkpt>
      <trkpt lat="45.98314" lon="6.46532">
        <ele>1456</ele>
        <time>2018-04-14T06:52:17Z</time>
      </trkpt>
      <trkpt lat="45.98348" lon="6.46545">
        <ele>1460</ele>
        <time>2018-04-14T06:52:44Z</time>
      </trkpt>
      <trkpt lat="45.98358" lon="6.46548">
        <ele>1460</ele>
        <time>2018-04-14T06:52:51Z</time>
      </trkpt>
      <trkpt lat="45.9836" lon="6.46549">
        <ele>1460</ele>
        <time>2018-04-14T06:52:52Z</time>
      </trkpt>
      <trkpt lat="45.98361" lon="6.46549">
        <ele>1460</ele>
        <time>2018-04-14T06:52:53Z</time>
      </trkpt>
      <trkpt lat="45.98363" lon="6.4655">
        <ele>1460</ele>
        <time>2018-04-14T06:52:54Z</time>
      </trkpt>
      <trkpt lat="45.98364" lon="6.46551">
        <ele>1460</ele>
        <time>2018-04-14T06:52:55Z</time>
      </trkpt>
      <trkpt lat="45.98383" lon="6.46554">
        <ele>1460</ele>
        <time>2018-04-14T06:53:08Z</time>
      </trkpt>
      <trkpt lat="45.98392" lon="6.46556">
        <ele>1460</ele>
        <time>2018-04-14T06:53:15Z</time>
      </trkpt>
      <trkpt lat="45.98397" lon="6.46557">
        <ele>1460</ele>
        <time>2018-04-14T06:53:19Z</time>
      </trkpt>
      <trkpt lat="45.98407" lon="6.46561">
        <ele>1461</ele>
        <time>2018-04-14T06:53:27Z</time>
      </trkpt>
      <trkpt lat="45.98425" lon="6.46564">
        <ele>1460</ele>
        <time>2018-04-14T06:53:38Z</time>
      </trkpt>
      <trkpt lat="45.98426" lon="6.46564">
        <ele>1460</ele>
        <time>2018-04-14T06:53:39Z</time>
      </trkpt>
      <trkpt lat="45.98459" lon="6.46578">
        <ele>1461</ele>
        <time>2018-04-14T06:54:04Z</time>
      </trkpt>
      <trkpt lat="45.98471" lon="6.46583">
        <ele>1461</ele>
        <time>2018-04-14T06:54:14Z</time>
      </trkpt>
      <trkpt lat="45.98472" lon="6.46584">
        <ele>1473</ele>
        <time>2018-04-14T06:54:15Z</time>
      </trkpt>
      <trkpt lat="45.98493" lon="6.46594">
        <ele>1472</ele>
        <time>2018-04-14T06:54:31Z</time>
      </trkpt>
      <trkpt lat="45.98495" lon="6.46595">
        <ele>1472</ele>
        <time>2018-04-14T06:54:33Z</time>
      </trkpt>
      <trkpt lat="45.98504" lon="6.46601">
        <ele>1471</ele>
        <time>2018-04-14T06:54:40Z</time>
      </trkpt>
      <trkpt lat="45.98505" lon="6.46602">
        <ele>1471</ele>
        <time>2018-04-14T06:54:41Z</time>
      </trkpt>
      <trkpt lat="45.98507" lon="6.46603">
        <ele>1472</ele>
        <time>2018-04-14T06:54:42Z</time>
      </trkpt>
      <trkpt lat="45.98508" lon="6.46603">
        <ele>1472</ele>
        <time>2018-04-14T06:54:43Z</time>
      </trkpt>
      <trkpt lat="45.98509" lon="6.46604">
        <ele>1472</ele>
        <time>2018-04-14T06:54:44Z</time>
      </trkpt>
      <trkpt lat="45.9851" lon="6.46605">
        <ele>1472</ele>
        <time>2018-04-14T06:54:45Z</time>
      </trkpt>
      <trkpt lat="45.98512" lon="6.46606">
        <ele>1472</ele>
        <time>2018-04-14T06:54:46Z</time>
      </trkpt>
      <trkpt lat="45.98514" lon="6.46606">
        <ele>1472</ele>
        <time>2018-04-14T06:54:47Z</time>
      </trkpt>
      <trkpt lat="45.98515" lon="6.46607">
        <ele>1472</ele>
        <time>2018-04-14T06:54:48Z</time>
      </trkpt>
      <trkpt lat="45.98517" lon="6.46608">
        <ele>1472</ele>
        <time>2018-04-14T06:54:49Z</time>
      </trkpt>
      <trkpt lat="45.98523" lon="6.46613">
        <ele>1473</ele>
        <time>2018-04-14T06:54:54Z</time>
      </trkpt>
      <trkpt lat="45.98524" lon="6.46613">
        <ele>1473</ele>
        <time>2018-04-14T06:54:55Z</time>
      </trkpt>
      <trkpt lat="45.98535" lon="6.46622">
        <ele>1474</ele>
        <time>2018-04-14T06:55:05Z</time>
      </trkpt>
      <trkpt lat="45.98535" lon="6.46622">
        <ele>1474</ele>
        <time>2018-04-14T06:55:06Z</time>
      </trkpt>
      <trkpt lat="45.98544" lon="6.46629">
        <ele>1474</ele>
        <time>2018-04-14T06:55:14Z</time>
      </trkpt>
      <trkpt lat="45.98545" lon="6.46631">
        <ele>1474</ele>
        <time>2018-04-14T06:55:16Z</time>
      </trkpt>
      <trkpt lat="45.98547" lon="6.46632">
        <ele>1474</ele>
        <time>2018-04-14T06:55:17Z</time>
      </trkpt>
      <trkpt lat="45.98548" lon="6.46633">
        <ele>1474</ele>
        <time>2018-04-14T06:55:18Z</time>
      </trkpt>
      <trkpt lat="45.98549" lon="6.46633">
        <ele>1474</ele>
        <time>2018-04-14T06:55:19Z</time>
      </trkpt>
      <trkpt lat="45.98554" lon="6.46637">
        <ele>1475</ele>
        <time>2018-04-14T06:55:24Z</time>
      </trkpt>
      <trkpt lat="45.9857" lon="6.46653">
        <ele>1477</ele>
        <time>2018-04-14T06:55:38Z</time>
      </trkpt>
      <trkpt lat="45.98571" lon="6.46654">
        <ele>1477</ele>
        <time>2018-04-14T06:55:39Z</time>
      </trkpt>
      <trkpt lat="45.98574" lon="6.46658">
        <ele>1478</ele>
        <time>2018-04-14T06:55:42Z</time>
      </trkpt>
      <trkpt lat="45.98574" lon="6.4666">
        <ele>1478</ele>
        <time>2018-04-14T06:55:43Z</time>
      </trkpt>
      <trkpt lat="45.98575" lon="6.46661">
        <ele>1479</ele>
        <time>2018-04-14T06:55:44Z</time>
      </trkpt>
      <trkpt lat="45.98576" lon="6.46662">
        <ele>1479</ele>
        <time>2018-04-14T06:55:45Z</time>
      </trkpt>
      <trkpt lat="45.98577" lon="6.46663">
        <ele>1479</ele>
        <time>2018-04-14T06:55:46Z</time>
      </trkpt>
      <trkpt lat="45.98578" lon="6.46665">
        <ele>1480</ele>
        <time>2018-04-14T06:55:47Z</time>
      </trkpt>
      <trkpt lat="45.9858" lon="6.46665">
        <ele>1480</ele>
        <time>2018-04-14T06:55:48Z</time>
      </trkpt>
      <trkpt lat="45.98581" lon="6.46666">
        <ele>1480</ele>
        <time>2018-04-14T06:55:49Z</time>
      </trkpt>
      <trkpt lat="45.98582" lon="6.46668">
        <ele>1482</ele>
        <time>2018-04-14T06:55:50Z</time>
      </trkpt>
      <trkpt lat="45.98583" lon="6.4667">
        <ele>1483</ele>
        <time>2018-04-14T06:55:52Z</time>
      </trkpt>
      <trkpt lat="45.98584" lon="6.46672">
        <ele>1481</ele>
        <time>2018-04-14T06:55:53Z</time>
      </trkpt>
      <trkpt lat="45.98585" lon="6.46674">
        <ele>1481</ele>
        <time>2018-04-14T06:55:54Z</time>
      </trkpt>
      <trkpt lat="45.98586" lon="6.46675">
        <ele>1481</ele>
        <time>2018-04-14T06:55:55Z</time>
      </trkpt>
      <trkpt lat="45.98587" lon="6.46676">
        <ele>1481</ele>
        <time>2018-04-14T06:55:56Z</time>
      </trkpt>
      <trkpt lat="45.98588" lon="6.46677">
        <ele>1481</ele>
        <time>2018-04-14T06:55:57Z</time>
      </trkpt>
      <trkpt lat="45.986" lon="6.46698">
        <ele>1481</ele>
        <time>2018-04-14T06:56:11Z</time>
      </trkpt>
      <trkpt lat="45.98615" lon="6.46731">
        <ele>1483</ele>
        <time>2018-04-14T06:56:35Z</time>
      </trkpt>
      <trkpt lat="45.98618" lon="6.46734">
        <ele>1483</ele>
        <time>2018-04-14T06:56:38Z</time>
      </trkpt>
      <trkpt lat="45.98623" lon="6.46745">
        <ele>1483</ele>
        <time>2018-04-14T06:56:45Z</time>
      </trkpt>
      <trkpt lat="45.98623" lon="6.46746">
        <ele>1482</ele>
        <time>2018-04-14T06:56:46Z</time>
      </trkpt>
      <trkpt lat="45.98625" lon="6.46747">
        <ele>1482</ele>
        <time>2018-04-14T06:56:47Z</time>
      </trkpt>
      <trkpt lat="45.98626" lon="6.46748">
        <ele>1482</ele>
        <time>2018-04-14T06:56:48Z</time>
      </trkpt>
      <trkpt lat="45.98627" lon="6.4675">
        <ele>1482</ele>
        <time>2018-04-14T06:56:49Z</time>
      </trkpt>
      <trkpt lat="45.98637" lon="6.46768">
        <ele>1491</ele>
        <time>2018-04-14T06:57:00Z</time>
      </trkpt>
      <trkpt lat="45.98638" lon="6.46769">
        <ele>1491</ele>
        <time>2018-04-14T06:57:01Z</time>
      </trkpt>
      <trkpt lat="45.98639" lon="6.46771">
        <ele>1491</ele>
        <time>2018-04-14T06:57:02Z</time>
      </trkpt>
      <trkpt lat="45.98658" lon="6.46807">
        <ele>1493</ele>
        <time>2018-04-14T06:57:24Z</time>
      </trkpt>
      <trkpt lat="45.98662" lon="6.46825">
        <ele>1493</ele>
        <time>2018-04-14T06:57:33Z</time>
      </trkpt>
      <trkpt lat="45.98662" lon="6.46826">
        <ele>1492</ele>
        <time>2018-04-14T06:57:34Z</time>
      </trkpt>
      <trkpt lat="45.98672" lon="6.46858">
        <ele>1494</ele>
        <time>2018-04-14T06:57:53Z</time>
      </trkpt>
      <trkpt lat="45.98676" lon="6.46873">
        <ele>1496</ele>
        <time>2018-04-14T06:58:02Z</time>
      </trkpt>
      <trkpt lat="45.98677" lon="6.4688">
        <ele>1497</ele>
        <time>2018-04-14T06:58:08Z</time>
      </trkpt>
      <trkpt lat="45.98678" lon="6.46881">
        <ele>1497</ele>
        <time>2018-04-14T06:58:09Z</time>
      </trkpt>
      <trkpt lat="45.98684" lon="6.46891">
        <ele>1498</ele>
        <time>2018-04-14T06:58:15Z</time>
      </trkpt>
      <trkpt lat="45.98686" lon="6.46892">
        <ele>1498</ele>
        <time>2018-04-14T06:58:16Z</time>
      </trkpt>
      <trkpt lat="45.98688" lon="6.46895">
        <ele>1498</ele>
        <time>2018-04-14T06:58:18Z</time>
      </trkpt>
      <trkpt lat="45.98689" lon="6.46897">
        <ele>1499</ele>
        <time>2018-04-14T06:58:19Z</time>
      </trkpt>
      <trkpt lat="45.98689" lon="6.46898">
        <ele>1499</ele>
        <time>2018-04-14T06:58:20Z</time>
      </trkpt>
      <trkpt lat="45.98689" lon="6.46899">
        <ele>1499</ele>
        <time>2018-04-14T06:58:21Z</time>
      </trkpt>
      <trkpt lat="45.98689" lon="6.46901">
        <ele>1499</ele>
        <time>2018-04-14T06:58:22Z</time>
      </trkpt>
      <trkpt lat="45.9869" lon="6.46902">
        <ele>1499</ele>
        <time>2018-04-14T06:58:23Z</time>
      </trkpt>
      <trkpt lat="45.98691" lon="6.46903">
        <ele>1499</ele>
        <time>2018-04-14T06:58:24Z</time>
      </trkpt>
      <trkpt lat="45.98692" lon="6.46905">
        <ele>1499</ele>
        <time>2018-04-14T06:58:25Z</time>
      </trkpt>
      <trkpt lat="45.98693" lon="6.46907">
        <ele>1499</ele>
        <time>2018-04-14T06:58:26Z</time>
      </trkpt>
      <trkpt lat="45.98693" lon="6.46909">
        <ele>1499</ele>
        <time>2018-04-14T06:58:27Z</time>
      </trkpt>
      <trkpt lat="45.98694" lon="6.4691">
        <ele>1499</ele>
        <time>2018-04-14T06:58:28Z</time>
      </trkpt>
      <trkpt lat="45.98695" lon="6.46911">
        <ele>1499</ele>
        <time>2018-04-14T06:58:29Z</time>
      </trkpt>
      <trkpt lat="45.98696" lon="6.46913">
        <ele>1499</ele>
        <time>2018-04-14T06:58:30Z</time>
      </trkpt>
      <trkpt lat="45.98697" lon="6.46914">
        <ele>1499</ele>
        <time>2018-04-14T06:58:31Z</time>
      </trkpt>
      <trkpt lat="45.98698" lon="6.46915">
        <ele>1499</ele>
        <time>2018-04-14T06:58:32Z</time>
      </trkpt>
      <trkpt lat="45.98699" lon="6.46916">
        <ele>1498</ele>
        <time>2018-04-14T06:58:33Z</time>
      </trkpt>
      <trkpt lat="45.987" lon="6.46918">
        <ele>1508</ele>
        <time>2018-04-14T06:58:34Z</time>
      </trkpt>
      <trkpt lat="45.98701" lon="6.46919">
        <ele>1508</ele>
        <time>2018-04-14T06:58:35Z</time>
      </trkpt>
      <trkpt lat="45.98702" lon="6.46921">
        <ele>1508</ele>
        <time>2018-04-14T06:58:36Z</time>
      </trkpt>
      <trkpt lat="45.98708" lon="6.46934">
        <ele>1508</ele>
        <time>2018-04-14T06:58:43Z</time>
      </trkpt>
      <trkpt lat="45.98716" lon="6.46945">
        <ele>1508</ele>
        <time>2018-04-14T06:58:51Z</time>
      </trkpt>
      <trkpt lat="45.98717" lon="6.46946">
        <ele>1508</ele>
        <time>2018-04-14T06:58:52Z</time>
      </trkpt>
      <trkpt lat="45.98718" lon="6.46948">
        <ele>1508</ele>
        <time>2018-04-14T06:58:53Z</time>
      </trkpt>
      <trkpt lat="45.98719" lon="6.4695">
        <ele>1508</ele>
        <time>2018-04-14T06:58:54Z</time>
      </trkpt>
      <trkpt lat="45.98721" lon="6.46951">
        <ele>1508</ele>
        <time>2018-04-14T06:58:55Z</time>
      </trkpt>
      <trkpt lat="45.98728" lon="6.46966">
        <ele>1509</ele>
        <time>2018-04-14T06:59:04Z</time>
      </trkpt>
      <trkpt lat="45.98729" lon="6.46967">
        <ele>1509</ele>
        <time>2018-04-14T06:59:05Z</time>
      </trkpt>
      <trkpt lat="45.9873" lon="6.46969">
        <ele>1509</ele>
        <time>2018-04-14T06:59:06Z</time>
      </trkpt>
      <trkpt lat="45.98731" lon="6.4697">
        <ele>1509</ele>
        <time>2018-04-14T06:59:07Z</time>
      </trkpt>
      <trkpt lat="45.98731" lon="6.46972">
        <ele>1509</ele>
        <time>2018-04-14T06:59:08Z</time>
      </trkpt>
      <trkpt lat="45.98752" lon="6.46999">
        <ele>1504</ele>
        <time>2018-04-14T06:59:29Z</time>
      </trkpt>
      <trkpt lat="45.98766" lon="6.47015">
        <ele>1507</ele>
        <time>2018-04-14T06:59:41Z</time>
      </trkpt>
      <trkpt lat="45.98768" lon="6.47016">
        <ele>1507</ele>
        <time>2018-04-14T06:59:42Z</time>
      </trkpt>
      <trkpt lat="45.98768" lon="6.47018">
        <ele>1507</ele>
        <time>2018-04-14T06:59:43Z</time>
      </trkpt>
      <trkpt lat="45.98769" lon="6.4702">
        <ele>1508</ele>
        <time>2018-04-14T06:59:44Z</time>
      </trkpt>
      <trkpt lat="45.9877" lon="6.47021">
        <ele>1508</ele>
        <time>2018-04-14T06:59:45Z</time>
      </trkpt>
      <trkpt lat="45.98779" lon="6.47038">
        <ele>1509</ele>
        <time>2018-04-14T06:59:56Z</time>
      </trkpt>
      <trkpt lat="45.9878" lon="6.47041">
        <ele>1509</ele>
        <time>2018-04-14T06:59:58Z</time>
      </trkpt>
      <trkpt lat="45.98781" lon="6.47042">
        <ele>1509</ele>
        <time>2018-04-14T06:59:59Z</time>
      </trkpt>
      <trkpt lat="45.98792" lon="6.47063">
        <ele>1510</ele>
        <time>2018-04-14T07:00:13Z</time>
      </trkpt>
      <trkpt lat="45.98799" lon="6.47077">
        <ele>1510</ele>
        <time>2018-04-14T07:00:22Z</time>
      </trkpt>
      <trkpt lat="45.98799" lon="6.47078">
        <ele>1510</ele>
        <time>2018-04-14T07:00:23Z</time>
      </trkpt>
      <trkpt lat="45.98799" lon="6.47081">
        <ele>1510</ele>
        <time>2018-04-14T07:00:38Z</time>
      </trkpt>
      <trkpt lat="45.98799" lon="6.47082">
        <ele>1510</ele>
        <time>2018-04-14T07:00:40Z</time>
      </trkpt>
      <trkpt lat="45.98799" lon="6.47082">
        <ele>1510</ele>
        <time>2018-04-14T07:00:44Z</time>
      </trkpt>
      <trkpt lat="45.98798" lon="6.47081">
        <ele>1510</ele>
        <time>2018-04-14T07:00:47Z</time>
      </trkpt>
      <trkpt lat="45.98798" lon="6.47081">
        <ele>1510</ele>
        <time>2018-04-14T07:00:51Z</time>
      </trkpt>
      <trkpt lat="45.98797" lon="6.47082">
        <ele>1510</ele>
        <time>2018-04-14T07:00:54Z</time>
      </trkpt>
      <trkpt lat="45.98796" lon="6.47083">
        <ele>1510</ele>
        <time>2018-04-14T07:01:00Z</time>
      </trkpt>
      <trkpt lat="45.98796" lon="6.47083">
        <ele>1510</ele>
        <time>2018-04-14T07:01:02Z</time>
      </trkpt>
      <trkpt lat="45.98796" lon="6.47082">
        <ele>1510</ele>
        <time>2018-04-14T07:01:06Z</time>
      </trkpt>
      <trkpt lat="45.988" lon="6.47079">
        <ele>1510</ele>
        <time>2018-04-14T07:01:13Z</time>
      </trkpt>
      <trkpt lat="45.98799" lon="6.4708">
        <ele>1510</ele>
        <time>2018-04-14T07:01:22Z</time>
      </trkpt>
      <trkpt lat="45.98799" lon="6.47081">
        <ele>1510</ele>
        <time>2018-04-14T07:01:24Z</time>
      </trkpt>
      <trkpt lat="45.98798" lon="6.47081">
        <ele>1510</ele>
        <time>2018-04-14T07:01:40Z</time>
      </trkpt>
      <trkpt lat="45.98798" lon="6.4708">
        <ele>1510</ele>
        <time>2018-04-14T07:01:44Z</time>
      </trkpt>
      <trkpt lat="45.98799" lon="6.47081">
        <ele>1510</ele>
        <time>2018-04-14T07:01:46Z</time>
      </trkpt>
      <trkpt lat="45.98799" lon="6.47081">
        <ele>1510</ele>
        <time>2018-04-14T07:01:47Z</time>
      </trkpt>
      <trkpt lat="45.98799" lon="6.47081">
        <ele>1510</ele>
        <time>2018-04-14T07:01:52Z</time>
      </trkpt>
      <trkpt lat="45.98799" lon="6.47081">
        <ele>1510</ele>
        <time>2018-04-14T07:01:57Z</time>
      </trkpt>
      <trkpt lat="45.988" lon="6.47086">
        <ele>1517</ele>
        <time>2018-04-14T07:02:39Z</time>
      </trkpt>
      <trkpt lat="45.98802" lon="6.47094">
        <ele>1517</ele>
        <time>2018-04-14T07:02:44Z</time>
      </trkpt>
      <trkpt lat="45.98805" lon="6.4711">
        <ele>1518</ele>
        <time>2018-04-14T07:02:52Z</time>
      </trkpt>
      <trkpt lat="45.98805" lon="6.47112">
        <ele>1518</ele>
        <time>2018-04-14T07:02:53Z</time>
      </trkpt>
      <trkpt lat="45.98805" lon="6.47113">
        <ele>1518</ele>
        <time>2018-04-14T07:02:54Z</time>
      </trkpt>
      <trkpt lat="45.98805" lon="6.47115">
        <ele>1519</ele>
        <time>2018-04-14T07:02:55Z</time>
      </trkpt>
      <trkpt lat="45.98806" lon="6.4712">
        <ele>1519</ele>
        <time>2018-04-14T07:02:58Z</time>
      </trkpt>
      <trkpt lat="45.98806" lon="6.47124">
        <ele>1519</ele>
        <time>2018-04-14T07:03:00Z</time>
      </trkpt>
      <trkpt lat="45.98807" lon="6.47127">
        <ele>1520</ele>
        <time>2018-04-14T07:03:02Z</time>
      </trkpt>
      <trkpt lat="45.98808" lon="6.47131">
        <ele>1520</ele>
        <time>2018-04-14T07:03:04Z</time>
      </trkpt>
      <trkpt lat="45.98809" lon="6.47135">
        <ele>1520</ele>
        <time>2018-04-14T07:03:06Z</time>
      </trkpt>
      <trkpt lat="45.9881" lon="6.47139">
        <ele>1520</ele>
        <time>2018-04-14T07:03:08Z</time>
      </trkpt>
      <trkpt lat="45.9881" lon="6.47143">
        <ele>1521</ele>
        <time>2018-04-14T07:03:10Z</time>
      </trkpt>
      <trkpt lat="45.98811" lon="6.47148">
        <ele>1521</ele>
        <time>2018-04-14T07:03:13Z</time>
      </trkpt>
      <trkpt lat="45.98811" lon="6.4715">
        <ele>1521</ele>
        <time>2018-04-14T07:03:14Z</time>
      </trkpt>
      <trkpt lat="45.98811" lon="6.47152">
        <ele>1521</ele>
        <time>2018-04-14T07:03:15Z</time>
      </trkpt>
      <trkpt lat="45.98812" lon="6.47153">
        <ele>1521</ele>
        <time>2018-04-14T07:03:16Z</time>
      </trkpt>
      <trkpt lat="45.98812" lon="6.47155">
        <ele>1521</ele>
        <time>2018-04-14T07:03:17Z</time>
      </trkpt>
      <trkpt lat="45.98812" lon="6.47156">
        <ele>1522</ele>
        <time>2018-04-14T07:03:18Z</time>
      </trkpt>
      <trkpt lat="45.98813" lon="6.47158">
        <ele>1522</ele>
        <time>2018-04-14T07:03:19Z</time>
      </trkpt>
      <trkpt lat="45.98813" lon="6.47159">
        <ele>1522</ele>
        <time>2018-04-14T07:03:20Z</time>
      </trkpt>
      <trkpt lat="45.98814" lon="6.47161">
        <ele>1522</ele>
        <time>2018-04-14T07:03:21Z</time>
      </trkpt>
      <trkpt lat="45.98814" lon="6.47163">
        <ele>1522</ele>
        <time>2018-04-14T07:03:22Z</time>
      </trkpt>
      <trkpt lat="45.98815" lon="6.47164">
        <ele>1522</ele>
        <time>2018-04-14T07:03:23Z</time>
      </trkpt>
      <trkpt lat="45.98816" lon="6.47165">
        <ele>1522</ele>
        <time>2018-04-14T07:03:24Z</time>
      </trkpt>
      <trkpt lat="45.98817" lon="6.47167">
        <ele>1527</ele>
        <time>2018-04-14T07:03:25Z</time>
      </trkpt>
      <trkpt lat="45.98817" lon="6.47168">
        <ele>1527</ele>
        <time>2018-04-14T07:03:26Z</time>
      </trkpt>
      <trkpt lat="45.98818" lon="6.4717">
        <ele>1527</ele>
        <time>2018-04-14T07:03:27Z</time>
      </trkpt>
      <trkpt lat="45.98818" lon="6.47172">
        <ele>1527</ele>
        <time>2018-04-14T07:03:28Z</time>
      </trkpt>
      <trkpt lat="45.98818" lon="6.47173">
        <ele>1527</ele>
        <time>2018-04-14T07:03:29Z</time>
      </trkpt>
      <trkpt lat="45.98819" lon="6.47175">
        <ele>1527</ele>
        <time>2018-04-14T07:03:31Z</time>
      </trkpt>
      <trkpt lat="45.98819" lon="6.47176">
        <ele>1527</ele>
        <time>2018-04-14T07:03:32Z</time>
      </trkpt>
      <trkpt lat="45.9882" lon="6.47183">
        <ele>1528</ele>
        <time>2018-04-14T07:03:37Z</time>
      </trkpt>
      <trkpt lat="45.98821" lon="6.47185">
        <ele>1528</ele>
        <time>2018-04-14T07:03:38Z</time>
      </trkpt>
      <trkpt lat="45.98822" lon="6.47186">
        <ele>1528</ele>
        <time>2018-04-14T07:03:39Z</time>
      </trkpt>
      <trkpt lat="45.98822" lon="6.47187">
        <ele>1528</ele>
        <time>2018-04-14T07:03:40Z</time>
      </trkpt>
      <trkpt lat="45.98822" lon="6.47189">
        <ele>1529</ele>
        <time>2018-04-14T07:03:41Z</time>
      </trkpt>
      <trkpt lat="45.98823" lon="6.47189">
        <ele>1529</ele>
        <time>2018-04-14T07:03:42Z</time>
      </trkpt>
      <trkpt lat="45.98823" lon="6.4719">
        <ele>1529</ele>
        <time>2018-04-14T07:03:43Z</time>
      </trkpt>
      <trkpt lat="45.98824" lon="6.47191">
        <ele>1529</ele>
        <time>2018-04-14T07:03:44Z</time>
      </trkpt>
      <trkpt lat="45.98824" lon="6.47192">
        <ele>1529</ele>
        <time>2018-04-14T07:03:45Z</time>
      </trkpt>
      <trkpt lat="45.98825" lon="6.47202">
        <ele>1530</ele>
        <time>2018-04-14T07:03:54Z</time>
      </trkpt>
      <trkpt lat="45.98833" lon="6.47212">
        <ele>1531</ele>
        <time>2018-04-14T07:04:06Z</time>
      </trkpt>
      <trkpt lat="45.98834" lon="6.47214">
        <ele>1532</ele>
        <time>2018-04-14T07:04:08Z</time>
      </trkpt>
      <trkpt lat="45.98834" lon="6.47215">
        <ele>1532</ele>
        <time>2018-04-14T07:04:09Z</time>
      </trkpt>
      <trkpt lat="45.98835" lon="6.47216">
        <ele>1532</ele>
        <time>2018-04-14T07:04:10Z</time>
      </trkpt>
      <trkpt lat="45.98835" lon="6.47217">
        <ele>1532</ele>
        <time>2018-04-14T07:04:11Z</time>
      </trkpt>
      <trkpt lat="45.98836" lon="6.47218">
        <ele>1532</ele>
        <time>2018-04-14T07:04:12Z</time>
      </trkpt>
      <trkpt lat="45.98836" lon="6.47219">
        <ele>1532</ele>
        <time>2018-04-14T07:04:13Z</time>
      </trkpt>
      <trkpt lat="45.98841" lon="6.47228">
        <ele>1533</ele>
        <time>2018-04-14T07:04:25Z</time>
      </trkpt>
      <trkpt lat="45.98856" lon="6.47236">
        <ele>1534</ele>
        <time>2018-04-14T07:04:42Z</time>
      </trkpt>
      <trkpt lat="45.98865" lon="6.47251">
        <ele>1545</ele>
        <time>2018-04-14T07:04:56Z</time>
      </trkpt>
      <trkpt lat="45.98873" lon="6.47263">
        <ele>1546</ele>
        <time>2018-04-14T07:05:09Z</time>
      </trkpt>
      <trkpt lat="45.98882" lon="6.47274">
        <ele>1548</ele>
        <time>2018-04-14T07:05:22Z</time>
      </trkpt>
      <trkpt lat="45.9889" lon="6.47284">
        <ele>1549</ele>
        <time>2018-04-14T07:05:34Z</time>
      </trkpt>
      <trkpt lat="45.98897" lon="6.47298">
        <ele>1551</ele>
        <time>2018-04-14T07:05:46Z</time>
      </trkpt>
      <trkpt lat="45.98905" lon="6.4731">
        <ele>1554</ele>
        <time>2018-04-14T07:05:59Z</time>
      </trkpt>
      <trkpt lat="45.98921" lon="6.4733">
        <ele>1563</ele>
        <time>2018-04-14T07:06:20Z</time>
      </trkpt>
      <trkpt lat="45.98926" lon="6.47335">
        <ele>1567</ele>
        <time>2018-04-14T07:06:26Z</time>
      </trkpt>
      <trkpt lat="45.98927" lon="6.47335">
        <ele>1568</ele>
        <time>2018-04-14T07:06:27Z</time>
      </trkpt>
      <trkpt lat="45.98928" lon="6.47336">
        <ele>1568</ele>
        <time>2018-04-14T07:06:28Z</time>
      </trkpt>
      <trkpt lat="45.9893" lon="6.47339">
        <ele>1569</ele>
        <time>2018-04-14T07:06:31Z</time>
      </trkpt>
      <trkpt lat="45.98931" lon="6.47339">
        <ele>1569</ele>
        <time>2018-04-14T07:06:32Z</time>
      </trkpt>
      <trkpt lat="45.98932" lon="6.4734">
        <ele>1569</ele>
        <time>2018-04-14T07:06:33Z</time>
      </trkpt>
      <trkpt lat="45.98933" lon="6.47341">
        <ele>1569</ele>
        <time>2018-04-14T07:06:34Z</time>
      </trkpt>
      <trkpt lat="45.98935" lon="6.47341">
        <ele>1570</ele>
        <time>2018-04-14T07:06:36Z</time>
      </trkpt>
      <trkpt lat="45.98936" lon="6.47342">
        <ele>1570</ele>
        <time>2018-04-14T07:06:37Z</time>
      </trkpt>
      <trkpt lat="45.98937" lon="6.47342">
        <ele>1570</ele>
        <time>2018-04-14T07:06:38Z</time>
      </trkpt>
      <trkpt lat="45.98939" lon="6.47345">
        <ele>1571</ele>
        <time>2018-04-14T07:06:41Z</time>
      </trkpt>
      <trkpt lat="45.98941" lon="6.47346">
        <ele>1571</ele>
        <time>2018-04-14T07:06:43Z</time>
      </trkpt>
      <trkpt lat="45.98942" lon="6.47347">
        <ele>1571</ele>
        <time>2018-04-14T07:06:44Z</time>
      </trkpt>
      <trkpt lat="45.98946" lon="6.4735">
        <ele>1572</ele>
        <time>2018-04-14T07:06:48Z</time>
      </trkpt>
      <trkpt lat="45.98947" lon="6.47351">
        <ele>1572</ele>
        <time>2018-04-14T07:06:49Z</time>
      </trkpt>
      <trkpt lat="45.98948" lon="6.47352">
        <ele>1572</ele>
        <time>2018-04-14T07:06:50Z</time>
      </trkpt>
      <trkpt lat="45.98949" lon="6.47352">
        <ele>1572</ele>
        <time>2018-04-14T07:06:51Z</time>
      </trkpt>
      <trkpt lat="45.98965" lon="6.47362">
        <ele>1573</ele>
        <time>2018-04-14T07:07:10Z</time>
      </trkpt>
      <trkpt lat="45.98977" lon="6.47361">
        <ele>1573</ele>
        <time>2018-04-14T07:07:22Z</time>
      </trkpt>
      <trkpt lat="45.98991" lon="6.47364">
        <ele>1574</ele>
        <time>2018-04-14T07:07:35Z</time>
      </trkpt>
      <trkpt lat="45.99" lon="6.47366">
        <ele>1574</ele>
        <time>2018-04-14T07:07:43Z</time>
      </trkpt>
      <trkpt lat="45.99009" lon="6.4737">
        <ele>1579</ele>
        <time>2018-04-14T07:07:52Z</time>
      </trkpt>
      <trkpt lat="45.99023" lon="6.47376">
        <ele>1580</ele>
        <time>2018-04-14T07:08:05Z</time>
      </trkpt>
      <trkpt lat="45.99037" lon="6.47389">
        <ele>1582</ele>
        <time>2018-04-14T07:08:20Z</time>
      </trkpt>
      <trkpt lat="45.9905" lon="6.47399">
        <ele>1583</ele>
        <time>2018-04-14T07:08:34Z</time>
      </trkpt>
      <trkpt lat="45.99054" lon="6.47401">
        <ele>1584</ele>
        <time>2018-04-14T07:08:37Z</time>
      </trkpt>
      <trkpt lat="45.99055" lon="6.47402">
        <ele>1584</ele>
        <time>2018-04-14T07:08:38Z</time>
      </trkpt>
      <trkpt lat="45.99056" lon="6.47402">
        <ele>1584</ele>
        <time>2018-04-14T07:08:39Z</time>
      </trkpt>
      <trkpt lat="45.99074" lon="6.47422">
        <ele>1594</ele>
        <time>2018-04-14T07:08:57Z</time>
      </trkpt>
      <trkpt lat="45.99085" lon="6.47433">
        <ele>1596</ele>
        <time>2018-04-14T07:09:08Z</time>
      </trkpt>
      <trkpt lat="45.99097" lon="6.47451">
        <ele>1600</ele>
        <time>2018-04-14T07:09:21Z</time>
      </trkpt>
      <trkpt lat="45.9911" lon="6.4746">
        <ele>1601</ele>
        <time>2018-04-14T07:09:32Z</time>
      </trkpt>
      <trkpt lat="45.99111" lon="6.47461">
        <ele>1601</ele>
        <time>2018-04-14T07:09:33Z</time>
      </trkpt>
      <trkpt lat="45.99123" lon="6.47476">
        <ele>1602</ele>
        <time>2018-04-14T07:09:49Z</time>
      </trkpt>
      <trkpt lat="45.99139" lon="6.4749">
        <ele>1602</ele>
        <time>2018-04-14T07:10:06Z</time>
      </trkpt>
      <trkpt lat="45.99141" lon="6.47491">
        <ele>1602</ele>
        <time>2018-04-14T07:10:07Z</time>
      </trkpt>
      <trkpt lat="45.99141" lon="6.47492">
        <ele>1602</ele>
        <time>2018-04-14T07:10:08Z</time>
      </trkpt>
      <trkpt lat="45.99142" lon="6.47492">
        <ele>1602</ele>
        <time>2018-04-14T07:10:09Z</time>
      </trkpt>
      <trkpt lat="45.99143" lon="6.47493">
        <ele>1602</ele>
        <time>2018-04-14T07:10:10Z</time>
      </trkpt>
      <trkpt lat="45.99144" lon="6.47494">
        <ele>1602</ele>
        <time>2018-04-14T07:10:11Z</time>
      </trkpt>
      <trkpt lat="45.99145" lon="6.47495">
        <ele>1602</ele>
        <time>2018-04-14T07:10:12Z</time>
      </trkpt>
      <trkpt lat="45.99146" lon="6.47496">
        <ele>1602</ele>
        <time>2018-04-14T07:10:13Z</time>
      </trkpt>
      <trkpt lat="45.99147" lon="6.47496">
        <ele>1602</ele>
        <time>2018-04-14T07:10:14Z</time>
      </trkpt>
      <trkpt lat="45.99154" lon="6.47503">
        <ele>1607</ele>
        <time>2018-04-14T07:10:21Z</time>
      </trkpt>
      <trkpt lat="45.99156" lon="6.47503">
        <ele>1607</ele>
        <time>2018-04-14T07:10:22Z</time>
      </trkpt>
      <trkpt lat="45.99157" lon="6.47504">
        <ele>1606</ele>
        <time>2018-04-14T07:10:23Z</time>
      </trkpt>
      <trkpt lat="45.99176" lon="6.47514">
        <ele>1610</ele>
        <time>2018-04-14T07:10:40Z</time>
      </trkpt>
      <trkpt lat="45.99177" lon="6.47514">
        <ele>1610</ele>
        <time>2018-04-14T07:10:41Z</time>
      </trkpt>
      <trkpt lat="45.99179" lon="6.47514">
        <ele>1611</ele>
        <time>2018-04-14T07:10:42Z</time>
      </trkpt>
      <trkpt lat="45.99179" lon="6.47514">
        <ele>1611</ele>
        <time>2018-04-14T07:10:43Z</time>
      </trkpt>
      <trkpt lat="45.99192" lon="6.47507">
        <ele>1613</ele>
        <time>2018-04-14T07:10:54Z</time>
      </trkpt>
      <trkpt lat="45.99206" lon="6.47508">
        <ele>1617</ele>
        <time>2018-04-14T07:11:06Z</time>
      </trkpt>
      <trkpt lat="45.99207" lon="6.47508">
        <ele>1617</ele>
        <time>2018-04-14T07:11:07Z</time>
      </trkpt>
      <trkpt lat="45.99221" lon="6.47512">
        <ele>1621</ele>
        <time>2018-04-14T07:11:18Z</time>
      </trkpt>
      <trkpt lat="45.99223" lon="6.47512">
        <ele>1621</ele>
        <time>2018-04-14T07:11:19Z</time>
      </trkpt>
      <trkpt lat="45.99224" lon="6.47513">
        <ele>1621</ele>
        <time>2018-04-14T07:11:20Z</time>
      </trkpt>
      <trkpt lat="45.99225" lon="6.47514">
        <ele>1622</ele>
        <time>2018-04-14T07:11:23Z</time>
      </trkpt>
      <trkpt lat="45.99227" lon="6.47516">
        <ele>1622</ele>
        <time>2018-04-14T07:11:24Z</time>
      </trkpt>
      <trkpt lat="45.99229" lon="6.47517">
        <ele>1622</ele>
        <time>2018-04-14T07:11:27Z</time>
      </trkpt>
      <trkpt lat="45.99229" lon="6.47519">
        <ele>1622</ele>
        <time>2018-04-14T07:11:28Z</time>
      </trkpt>
      <trkpt lat="45.9923" lon="6.47519">
        <ele>1622</ele>
        <time>2018-04-14T07:11:34Z</time>
      </trkpt>
      <trkpt lat="45.99229" lon="6.47514">
        <ele>1623</ele>
        <time>2018-04-14T07:11:38Z</time>
      </trkpt>
      <trkpt lat="45.99229" lon="6.47512">
        <ele>1623</ele>
        <time>2018-04-14T07:11:39Z</time>
      </trkpt>
      <trkpt lat="45.99227" lon="6.47485">
        <ele>1624</ele>
        <time>2018-04-14T07:11:59Z</time>
      </trkpt>
      <trkpt lat="45.99222" lon="6.4746">
        <ele>1623</ele>
        <time>2018-04-14T07:12:18Z</time>
      </trkpt>
      <trkpt lat="45.99218" lon="6.47441">
        <ele>1623</ele>
        <time>2018-04-14T07:12:32Z</time>
      </trkpt>
      <trkpt lat="45.99215" lon="6.47428">
        <ele>1623</ele>
        <time>2018-04-14T07:12:43Z</time>
      </trkpt>
      <trkpt lat="45.99212" lon="6.47413">
        <ele>1626</ele>
        <time>2018-04-14T07:12:54Z</time>
      </trkpt>
      <trkpt lat="45.9921" lon="6.474">
        <ele>1626</ele>
        <time>2018-04-14T07:13:04Z</time>
      </trkpt>
      <trkpt lat="45.9921" lon="6.47399">
        <ele>1626</ele>
        <time>2018-04-14T07:13:05Z</time>
      </trkpt>
      <trkpt lat="45.9921" lon="6.47397">
        <ele>1626</ele>
        <time>2018-04-14T07:13:07Z</time>
      </trkpt>
      <trkpt lat="45.99211" lon="6.47395">
        <ele>1626</ele>
        <time>2018-04-14T07:13:08Z</time>
      </trkpt>
      <trkpt lat="45.99213" lon="6.47384">
        <ele>1627</ele>
        <time>2018-04-14T07:13:19Z</time>
      </trkpt>
      <trkpt lat="45.99214" lon="6.47383">
        <ele>1627</ele>
        <time>2018-04-14T07:13:20Z</time>
      </trkpt>
      <trkpt lat="45.99213" lon="6.47365">
        <ele>1628</ele>
        <time>2018-04-14T07:13:34Z</time>
      </trkpt>
      <trkpt lat="45.99216" lon="6.47351">
        <ele>1630</ele>
        <time>2018-04-14T07:13:48Z</time>
      </trkpt>
      <trkpt lat="45.99218" lon="6.47338">
        <ele>1632</ele>
        <time>2018-04-14T07:14:02Z</time>
      </trkpt>
      <trkpt lat="45.99222" lon="6.47322">
        <ele>1637</ele>
        <time>2018-04-14T07:14:17Z</time>
      </trkpt>
      <trkpt lat="45.99227" lon="6.47314">
        <ele>1638</ele>
        <time>2018-04-14T07:14:26Z</time>
      </trkpt>
      <trkpt lat="45.99227" lon="6.47313">
        <ele>1638</ele>
        <time>2018-04-14T07:14:27Z</time>
      </trkpt>
      <trkpt lat="45.99235" lon="6.47289">
        <ele>1638</ele>
        <time>2018-04-14T07:14:46Z</time>
      </trkpt>
      <trkpt lat="45.99238" lon="6.47272">
        <ele>1640</ele>
        <time>2018-04-14T07:15:01Z</time>
      </trkpt>
      <trkpt lat="45.99243" lon="6.47261">
        <ele>1644</ele>
        <time>2018-04-14T07:15:12Z</time>
      </trkpt>
      <trkpt lat="45.99259" lon="6.47247">
        <ele>1655</ele>
        <time>2018-04-14T07:15:30Z</time>
      </trkpt>
      <trkpt lat="45.99267" lon="6.47244">
        <ele>1658</ele>
        <time>2018-04-14T07:15:38Z</time>
      </trkpt>
      <trkpt lat="45.99273" lon="6.47238">
        <ele>1659</ele>
        <time>2018-04-14T07:15:48Z</time>
      </trkpt>
      <trkpt lat="45.99271" lon="6.47219">
        <ele>1661</ele>
        <time>2018-04-14T07:16:03Z</time>
      </trkpt>
      <trkpt lat="45.9927" lon="6.47209">
        <ele>1661</ele>
        <time>2018-04-14T07:16:11Z</time>
      </trkpt>
      <trkpt lat="45.99269" lon="6.47183">
        <ele>1662</ele>
        <time>2018-04-14T07:16:32Z</time>
      </trkpt>
      <trkpt lat="45.99268" lon="6.47157">
        <ele>1668</ele>
        <time>2018-04-14T07:16:54Z</time>
      </trkpt>
      <trkpt lat="45.99263" lon="6.47137">
        <ele>1671</ele>
        <time>2018-04-14T07:17:11Z</time>
      </trkpt>
      <trkpt lat="45.99261" lon="6.47132">
        <ele>1672</ele>
        <time>2018-04-14T07:17:16Z</time>
      </trkpt>
      <trkpt lat="45.9926" lon="6.4713">
        <ele>1673</ele>
        <time>2018-04-14T07:17:18Z</time>
      </trkpt>
      <trkpt lat="45.99257" lon="6.47121">
        <ele>1674</ele>
        <time>2018-04-14T07:17:29Z</time>
      </trkpt>
      <trkpt lat="45.99257" lon="6.47119">
        <ele>1674</ele>
        <time>2018-04-14T07:17:31Z</time>
      </trkpt>
      <trkpt lat="45.99254" lon="6.47111">
        <ele>1675</ele>
        <time>2018-04-14T07:17:53Z</time>
      </trkpt>
      <trkpt lat="45.99265" lon="6.47112">
        <ele>1675</ele>
        <time>2018-04-14T07:18:15Z</time>
      </trkpt>
      <trkpt lat="45.99269" lon="6.47108">
        <ele>1676</ele>
        <time>2018-04-14T07:18:30Z</time>
      </trkpt>
      <trkpt lat="45.99269" lon="6.47095">
        <ele>1677</ele>
        <time>2018-04-14T07:18:53Z</time>
      </trkpt>
      <trkpt lat="45.9927" lon="6.47087">
        <ele>1677</ele>
        <time>2018-04-14T07:19:00Z</time>
      </trkpt>
      <trkpt lat="45.99273" lon="6.47077">
        <ele>1688</ele>
        <time>2018-04-14T07:19:11Z</time>
      </trkpt>
      <trkpt lat="45.99275" lon="6.47069">
        <ele>1690</ele>
        <time>2018-04-14T07:19:19Z</time>
      </trkpt>
      <trkpt lat="45.99282" lon="6.4707">
        <ele>1691</ele>
        <time>2018-04-14T07:19:28Z</time>
      </trkpt>
      <trkpt lat="45.99291" lon="6.47071">
        <ele>1692</ele>
        <time>2018-04-14T07:19:42Z</time>
      </trkpt>
      <trkpt lat="45.99293" lon="6.4707">
        <ele>1693</ele>
        <time>2018-04-14T07:19:45Z</time>
      </trkpt>
      <trkpt lat="45.99294" lon="6.4707">
        <ele>1693</ele>
        <time>2018-04-14T07:19:46Z</time>
      </trkpt>
      <trkpt lat="45.99305" lon="6.47052">
        <ele>1696</ele>
        <time>2018-04-14T07:20:02Z</time>
      </trkpt>
      <trkpt lat="45.99305" lon="6.4705">
        <ele>1697</ele>
        <time>2018-04-14T07:20:03Z</time>
      </trkpt>
      <trkpt lat="45.99306" lon="6.47049">
        <ele>1697</ele>
        <time>2018-04-14T07:20:04Z</time>
      </trkpt>
      <trkpt lat="45.99307" lon="6.47048">
        <ele>1697</ele>
        <time>2018-04-14T07:20:05Z</time>
      </trkpt>
      <trkpt lat="45.99307" lon="6.47047">
        <ele>1697</ele>
        <time>2018-04-14T07:20:06Z</time>
      </trkpt>
      <trkpt lat="45.99308" lon="6.47045">
        <ele>1698</ele>
        <time>2018-04-14T07:20:07Z</time>
      </trkpt>
      <trkpt lat="45.99309" lon="6.47044">
        <ele>1698</ele>
        <time>2018-04-14T07:20:08Z</time>
      </trkpt>
      <trkpt lat="45.99309" lon="6.47041">
        <ele>1698</ele>
        <time>2018-04-14T07:20:10Z</time>
      </trkpt>
      <trkpt lat="45.99309" lon="6.4704">
        <ele>1699</ele>
        <time>2018-04-14T07:20:12Z</time>
      </trkpt>
      <trkpt lat="45.99309" lon="6.47038">
        <ele>1699</ele>
        <time>2018-04-14T07:20:13Z</time>
      </trkpt>
      <trkpt lat="45.99309" lon="6.47036">
        <ele>1700</ele>
        <time>2018-04-14T07:20:15Z</time>
      </trkpt>
      <trkpt lat="45.99312" lon="6.47023">
        <ele>1703</ele>
        <time>2018-04-14T07:20:30Z</time>
      </trkpt>
      <trkpt lat="45.99314" lon="6.47019">
        <ele>1705</ele>
        <time>2018-04-14T07:20:34Z</time>
      </trkpt>
      <trkpt lat="45.99314" lon="6.47018">
        <ele>1705</ele>
        <time>2018-04-14T07:20:35Z</time>
      </trkpt>
      <trkpt lat="45.9932" lon="6.47001">
        <ele>1711</ele>
        <time>2018-04-14T07:20:50Z</time>
      </trkpt>
      <trkpt lat="45.99323" lon="6.47">
        <ele>1714</ele>
        <time>2018-04-14T07:20:57Z</time>
      </trkpt>
      <trkpt lat="45.99329" lon="6.47008">
        <ele>1715</ele>
        <time>2018-04-14T07:21:09Z</time>
      </trkpt>
      <trkpt lat="45.99341" lon="6.47015">
        <ele>1724</ele>
        <time>2018-04-14T07:21:26Z</time>
      </trkpt>
      <trkpt lat="45.99353" lon="6.47019">
        <ele>1725</ele>
        <time>2018-04-14T07:21:41Z</time>
      </trkpt>
      <trkpt lat="45.99367" lon="6.47023">
        <ele>1727</ele>
        <time>2018-04-14T07:21:59Z</time>
      </trkpt>
      <trkpt lat="45.99369" lon="6.47021">
        <ele>1728</ele>
        <time>2018-04-14T07:22:16Z</time>
      </trkpt>
      <trkpt lat="45.99366" lon="6.47016">
        <ele>1728</ele>
        <time>2018-04-14T07:22:22Z</time>
      </trkpt>
      <trkpt lat="45.99365" lon="6.47012">
        <ele>1728</ele>
        <time>2018-04-14T07:22:26Z</time>
      </trkpt>
      <trkpt lat="45.99364" lon="6.4701">
        <ele>1728</ele>
        <time>2018-04-14T07:22:28Z</time>
      </trkpt>
      <trkpt lat="45.99362" lon="6.46995">
        <ele>1741</ele>
        <time>2018-04-14T07:22:46Z</time>
      </trkpt>
      <trkpt lat="45.99359" lon="6.46977">
        <ele>1742</ele>
        <time>2018-04-14T07:23:03Z</time>
      </trkpt>
      <trkpt lat="45.99358" lon="6.46958">
        <ele>1745</ele>
        <time>2018-04-14T07:23:21Z</time>
      </trkpt>
      <trkpt lat="45.99363" lon="6.46961">
        <ele>1745</ele>
        <time>2018-04-14T07:23:28Z</time>
      </trkpt>
      <trkpt lat="45.99371" lon="6.46972">
        <ele>1746</ele>
        <time>2018-04-14T07:23:46Z</time>
      </trkpt>
      <trkpt lat="45.99381" lon="6.4698">
        <ele>1748</ele>
        <time>2018-04-14T07:24:02Z</time>
      </trkpt>
      <trkpt lat="45.99393" lon="6.46987">
        <ele>1751</ele>
        <time>2018-04-14T07:24:19Z</time>
      </trkpt>
      <trkpt lat="45.99402" lon="6.46991">
        <ele>1752</ele>
        <time>2018-04-14T07:24:32Z</time>
      </trkpt>
      <trkpt lat="45.9941" lon="6.46993">
        <ele>1754</ele>
        <time>2018-04-14T07:24:45Z</time>
      </trkpt>
      <trkpt lat="45.99423" lon="6.46998">
        <ele>1764</ele>
        <time>2018-04-14T07:25:03Z</time>
      </trkpt>
      <trkpt lat="45.9943" lon="6.47006">
        <ele>1762</ele>
        <time>2018-04-14T07:25:19Z</time>
      </trkpt>
      <trkpt lat="45.99434" lon="6.47007">
        <ele>1764</ele>
        <time>2018-04-14T07:25:39Z</time>
      </trkpt>
      <trkpt lat="45.99432" lon="6.46998">
        <ele>1773</ele>
        <time>2018-04-14T07:25:50Z</time>
      </trkpt>
      <trkpt lat="45.99431" lon="6.46991">
        <ele>1774</ele>
        <time>2018-04-14T07:25:58Z</time>
      </trkpt>
      <trkpt lat="45.99429" lon="6.46977">
        <ele>1780</ele>
        <time>2018-04-14T07:26:16Z</time>
      </trkpt>
      <trkpt lat="45.99426" lon="6.46961">
        <ele>1784</ele>
        <time>2018-04-14T07:26:36Z</time>
      </trkpt>
      <trkpt lat="45.99419" lon="6.46948">
        <ele>1786</ele>
        <time>2018-04-14T07:26:55Z</time>
      </trkpt>
      <trkpt lat="45.99417" lon="6.46933">
        <ele>1786</ele>
        <time>2018-04-14T07:27:14Z</time>
      </trkpt>
      <trkpt lat="45.99417" lon="6.46917">
        <ele>1782</ele>
        <time>2018-04-14T07:27:32Z</time>
      </trkpt>
      <trkpt lat="45.99427" lon="6.46925">
        <ele>1786</ele>
        <time>2018-04-14T07:27:53Z</time>
      </trkpt>
      <trkpt lat="45.99438" lon="6.46931">
        <ele>1789</ele>
        <time>2018-04-14T07:28:11Z</time>
      </trkpt>
      <trkpt lat="45.99434" lon="6.46922">
        <ele>1788</ele>
        <time>2018-04-14T07:28:27Z</time>
      </trkpt>
      <trkpt lat="45.99434" lon="6.46905">
        <ele>1803</ele>
        <time>2018-04-14T07:28:45Z</time>
      </trkpt>
      <trkpt lat="45.99444" lon="6.46911">
        <ele>1807</ele>
        <time>2018-04-14T07:29:09Z</time>
      </trkpt>
      <trkpt lat="45.99454" lon="6.46918">
        <ele>1795</ele>
        <time>2018-04-14T07:29:25Z</time>
      </trkpt>
      <trkpt lat="45.99457" lon="6.4692">
        <ele>1796</ele>
        <time>2018-04-14T07:29:29Z</time>
      </trkpt>
      <trkpt lat="45.99465" lon="6.46929">
        <ele>1798</ele>
        <time>2018-04-14T07:29:47Z</time>
      </trkpt>
      <trkpt lat="45.99472" lon="6.46937">
        <ele>1800</ele>
        <time>2018-04-14T07:30:03Z</time>
      </trkpt>
      <trkpt lat="45.99482" lon="6.46945">
        <ele>1801</ele>
        <time>2018-04-14T07:30:23Z</time>
      </trkpt>
      <trkpt lat="45.99492" lon="6.46953">
        <ele>1801</ele>
        <time>2018-04-14T07:30:42Z</time>
      </trkpt>
      <trkpt lat="45.99495" lon="6.46951">
        <ele>1802</ele>
        <time>2018-04-14T07:31:02Z</time>
      </trkpt>
      <trkpt lat="45.99491" lon="6.46943">
        <ele>1804</ele>
        <time>2018-04-14T07:31:13Z</time>
      </trkpt>
      <trkpt lat="45.99489" lon="6.46928">
        <ele>1810</ele>
        <time>2018-04-14T07:31:30Z</time>
      </trkpt>
      <trkpt lat="45.99487" lon="6.46913">
        <ele>1822</ele>
        <time>2018-04-14T07:31:49Z</time>
      </trkpt>
      <trkpt lat="45.99488" lon="6.46908">
        <ele>1822</ele>
        <time>2018-04-14T07:31:55Z</time>
      </trkpt>
      <trkpt lat="45.99486" lon="6.46895">
        <ele>1822</ele>
        <time>2018-04-14T07:32:12Z</time>
      </trkpt>
      <trkpt lat="45.99488" lon="6.46883">
        <ele>1824</ele>
        <time>2018-04-14T07:32:35Z</time>
      </trkpt>
      <trkpt lat="45.99497" lon="6.4689">
        <ele>1824</ele>
        <time>2018-04-14T07:32:52Z</time>
      </trkpt>
      <trkpt lat="45.99507" lon="6.46894">
        <ele>1850</ele>
        <time>2018-04-14T07:33:08Z</time>
      </trkpt>
      <trkpt lat="45.9951" lon="6.46898">
        <ele>1848</ele>
        <time>2018-04-14T07:33:37Z</time>
      </trkpt>
      <trkpt lat="45.99509" lon="6.46888">
        <ele>1853</ele>
        <time>2018-04-14T07:33:54Z</time>
      </trkpt>
      <trkpt lat="45.99507" lon="6.4688">
        <ele>1856</ele>
        <time>2018-04-14T07:34:07Z</time>
      </trkpt>
      <trkpt lat="45.99504" lon="6.46864">
        <ele>1859</ele>
        <time>2018-04-14T07:34:33Z</time>
      </trkpt>
      <trkpt lat="45.99503" lon="6.46849">
        <ele>1860</ele>
        <time>2018-04-14T07:34:53Z</time>
      </trkpt>
      <trkpt lat="45.995" lon="6.46838">
        <ele>1850</ele>
        <time>2018-04-14T07:35:05Z</time>
      </trkpt>
      <trkpt lat="45.99498" lon="6.46825">
        <ele>1859</ele>
        <time>2018-04-14T07:35:24Z</time>
      </trkpt>
      <trkpt lat="45.99507" lon="6.46828">
        <ele>1870</ele>
        <time>2018-04-14T07:35:48Z</time>
      </trkpt>
      <trkpt lat="45.9952" lon="6.46835">
        <ele>1864</ele>
        <time>2018-04-14T07:36:09Z</time>
      </trkpt>
      <trkpt lat="45.99528" lon="6.46844">
        <ele>1866</ele>
        <time>2018-04-14T07:36:26Z</time>
      </trkpt>
      <trkpt lat="45.99534" lon="6.46853">
        <ele>1868</ele>
        <time>2018-04-14T07:36:41Z</time>
      </trkpt>
      <trkpt lat="45.99539" lon="6.46858">
        <ele>1869</ele>
        <time>2018-04-14T07:36:52Z</time>
      </trkpt>
      <trkpt lat="45.99542" lon="6.46862">
        <ele>1869</ele>
        <time>2018-04-14T07:37:12Z</time>
      </trkpt>
      <trkpt lat="45.99541" lon="6.46846">
        <ele>1871</ele>
        <time>2018-04-14T07:37:33Z</time>
      </trkpt>
      <trkpt lat="45.99542" lon="6.46838">
        <ele>1872</ele>
        <time>2018-04-14T07:37:42Z</time>
      </trkpt>
      <trkpt lat="45.99543" lon="6.46825">
        <ele>1896</ele>
        <time>2018-04-14T07:37:58Z</time>
      </trkpt>
      <trkpt lat="45.99542" lon="6.46811">
        <ele>1899</ele>
        <time>2018-04-14T07:38:17Z</time>
      </trkpt>
      <trkpt lat="45.9954" lon="6.46795">
        <ele>1902</ele>
        <time>2018-04-14T07:38:37Z</time>
      </trkpt>
      <trkpt lat="45.9954" lon="6.46793">
        <ele>1902</ele>
        <time>2018-04-14T07:38:39Z</time>
      </trkpt>
      <trkpt lat="45.99539" lon="6.46787">
        <ele>1904</ele>
        <time>2018-04-14T07:38:45Z</time>
      </trkpt>
      <trkpt lat="45.99539" lon="6.46784">
        <ele>1904</ele>
        <time>2018-04-14T07:38:48Z</time>
      </trkpt>
      <trkpt lat="45.99535" lon="6.4677">
        <ele>1907</ele>
        <time>2018-04-14T07:39:03Z</time>
      </trkpt>
      <trkpt lat="45.99531" lon="6.46764">
        <ele>1908</ele>
        <time>2018-04-14T07:39:12Z</time>
      </trkpt>
      <trkpt lat="45.99531" lon="6.46762">
        <ele>1908</ele>
        <time>2018-04-14T07:39:13Z</time>
      </trkpt>
      <trkpt lat="45.99539" lon="6.46762">
        <ele>1909</ele>
        <time>2018-04-14T07:39:25Z</time>
      </trkpt>
      <trkpt lat="45.99552" lon="6.46765">
        <ele>1911</ele>
        <time>2018-04-14T07:39:41Z</time>
      </trkpt>
      <trkpt lat="45.99559" lon="6.46772">
        <ele>1911</ele>
        <time>2018-04-14T07:39:56Z</time>
      </trkpt>
      <trkpt lat="45.99564" lon="6.46775">
        <ele>1911</ele>
        <time>2018-04-14T07:40:18Z</time>
      </trkpt>
      <trkpt lat="45.99562" lon="6.4676">
        <ele>1915</ele>
        <time>2018-04-14T07:40:36Z</time>
      </trkpt>
      <trkpt lat="45.99555" lon="6.46745">
        <ele>1936</ele>
        <time>2018-04-14T07:40:55Z</time>
      </trkpt>
      <trkpt lat="45.99549" lon="6.46735">
        <ele>1938</ele>
        <time>2018-04-14T07:41:09Z</time>
      </trkpt>
      <trkpt lat="45.99549" lon="6.46724">
        <ele>1939</ele>
        <time>2018-04-14T07:41:29Z</time>
      </trkpt>
      <trkpt lat="45.99563" lon="6.46727">
        <ele>1938</ele>
        <time>2018-04-14T07:41:47Z</time>
      </trkpt>
      <trkpt lat="45.99575" lon="6.46732">
        <ele>1937</ele>
        <time>2018-04-14T07:42:03Z</time>
      </trkpt>
      <trkpt lat="45.99585" lon="6.46737">
        <ele>1941</ele>
        <time>2018-04-14T07:42:19Z</time>
      </trkpt>
      <trkpt lat="45.99594" lon="6.46749">
        <ele>1939</ele>
        <time>2018-04-14T07:42:36Z</time>
      </trkpt>
      <trkpt lat="45.99602" lon="6.46755">
        <ele>1935</ele>
        <time>2018-04-14T07:42:51Z</time>
      </trkpt>
      <trkpt lat="45.99604" lon="6.46757">
        <ele>1936</ele>
        <time>2018-04-14T07:42:55Z</time>
      </trkpt>
      <trkpt lat="45.99614" lon="6.46764">
        <ele>1938</ele>
        <time>2018-04-14T07:43:11Z</time>
      </trkpt>
      <trkpt lat="45.99623" lon="6.4677">
        <ele>1940</ele>
        <time>2018-04-14T07:43:26Z</time>
      </trkpt>
      <trkpt lat="45.99626" lon="6.46772">
        <ele>1941</ele>
        <time>2018-04-14T07:43:32Z</time>
      </trkpt>
      <trkpt lat="45.99631" lon="6.46775">
        <ele>1942</ele>
        <time>2018-04-14T07:43:37Z</time>
      </trkpt>
      <trkpt lat="45.99634" lon="6.46776">
        <ele>1943</ele>
        <time>2018-04-14T07:43:40Z</time>
      </trkpt>
      <trkpt lat="45.99646" lon="6.46779">
        <ele>1945</ele>
        <time>2018-04-14T07:43:56Z</time>
      </trkpt>
      <trkpt lat="45.99658" lon="6.46783">
        <ele>1947</ele>
        <time>2018-04-14T07:44:13Z</time>
      </trkpt>
      <trkpt lat="45.9967" lon="6.46787">
        <ele>1978</ele>
        <time>2018-04-14T07:44:28Z</time>
      </trkpt>
      <trkpt lat="45.99668" lon="6.46787">
        <ele>1978</ele>
        <time>2018-04-14T07:44:43Z</time>
      </trkpt>
      <trkpt lat="45.99667" lon="6.46782">
        <ele>1948</ele>
        <time>2018-04-14T07:44:50Z</time>
      </trkpt>
      <trkpt lat="45.99666" lon="6.4678">
        <ele>1949</ele>
        <time>2018-04-14T07:44:52Z</time>
      </trkpt>
      <trkpt lat="45.99663" lon="6.46763">
        <ele>1954</ele>
        <time>2018-04-14T07:45:06Z</time>
      </trkpt>
      <trkpt lat="45.99663" lon="6.46746">
        <ele>1963</ele>
        <time>2018-04-14T07:45:22Z</time>
      </trkpt>
      <trkpt lat="45.99666" lon="6.46735">
        <ele>1962</ele>
        <time>2018-04-14T07:45:34Z</time>
      </trkpt>
      <trkpt lat="45.99665" lon="6.46734">
        <ele>1962</ele>
        <time>2018-04-14T07:45:43Z</time>
      </trkpt>
      <trkpt lat="45.99664" lon="6.46734">
        <ele>1962</ele>
        <time>2018-04-14T07:45:44Z</time>
      </trkpt>
      <trkpt lat="45.99662" lon="6.46735">
        <ele>1962</ele>
        <time>2018-04-14T07:45:48Z</time>
      </trkpt>
      <trkpt lat="45.99662" lon="6.46735">
        <ele>1962</ele>
        <time>2018-04-14T07:45:53Z</time>
      </trkpt>
      <trkpt lat="45.99663" lon="6.46734">
        <ele>1962</ele>
        <time>2018-04-14T07:45:55Z</time>
      </trkpt>
      <trkpt lat="45.99662" lon="6.46735">
        <ele>1962</ele>
        <time>2018-04-14T07:45:58Z</time>
      </trkpt>
      <trkpt lat="45.99662" lon="6.46736">
        <ele>1962</ele>
        <time>2018-04-14T07:45:59Z</time>
      </trkpt>
      <trkpt lat="45.99663" lon="6.46741">
        <ele>1962</ele>
        <time>2018-04-14T07:46:03Z</time>
      </trkpt>
      <trkpt lat="45.99668" lon="6.4673">
        <ele>1983</ele>
        <time>2018-04-14T07:46:15Z</time>
      </trkpt>
      <trkpt lat="45.99669" lon="6.46726">
        <ele>1985</ele>
        <time>2018-04-14T07:46:18Z</time>
      </trkpt>
      <trkpt lat="45.99672" lon="6.4671">
        <ele>1990</ele>
        <time>2018-04-14T07:46:33Z</time>
      </trkpt>
      <trkpt lat="45.99675" lon="6.4671">
        <ele>1990</ele>
        <time>2018-04-14T07:46:37Z</time>
      </trkpt>
      <trkpt lat="45.99678" lon="6.4671">
        <ele>1991</ele>
        <time>2018-04-14T07:46:42Z</time>
      </trkpt>
      <trkpt lat="45.99679" lon="6.46711">
        <ele>1991</ele>
        <time>2018-04-14T07:46:43Z</time>
      </trkpt>
      <trkpt lat="45.99683" lon="6.46711">
        <ele>1992</ele>
        <time>2018-04-14T07:46:48Z</time>
      </trkpt>
      <trkpt lat="45.99691" lon="6.46718">
        <ele>1993</ele>
        <time>2018-04-14T07:47:00Z</time>
      </trkpt>
      <trkpt lat="45.99692" lon="6.4672">
        <ele>1993</ele>
        <time>2018-04-14T07:47:03Z</time>
      </trkpt>
      <trkpt lat="45.99696" lon="6.46725">
        <ele>1994</ele>
        <time>2018-04-14T07:47:15Z</time>
      </trkpt>
      <trkpt lat="45.99703" lon="6.46732">
        <ele>1996</ele>
        <time>2018-04-14T07:47:29Z</time>
      </trkpt>
      <trkpt lat="45.99706" lon="6.46719">
        <ele>1999</ele>
        <time>2018-04-14T07:47:45Z</time>
      </trkpt>
      <trkpt lat="45.99707" lon="6.46712">
        <ele>1999</ele>
        <time>2018-04-14T07:47:54Z</time>
      </trkpt>
      <trkpt lat="45.99711" lon="6.46704">
        <ele>2001</ele>
        <time>2018-04-14T07:48:14Z</time>
      </trkpt>
      <trkpt lat="45.99716" lon="6.46712">
        <ele>2002</ele>
        <time>2018-04-14T07:48:28Z</time>
      </trkpt>
      <trkpt lat="45.99722" lon="6.4672">
        <ele>2004</ele>
        <time>2018-04-14T07:48:40Z</time>
      </trkpt>
      <trkpt lat="45.99722" lon="6.46716">
        <ele>2004</ele>
        <time>2018-04-14T07:48:57Z</time>
      </trkpt>
      <trkpt lat="45.99726" lon="6.46704">
        <ele>2006</ele>
        <time>2018-04-14T07:49:14Z</time>
      </trkpt>
      <trkpt lat="45.99731" lon="6.46686">
        <ele>2010</ele>
        <time>2018-04-14T07:49:32Z</time>
      </trkpt>
      <trkpt lat="45.9973" lon="6.46671">
        <ele>2013</ele>
        <time>2018-04-14T07:49:48Z</time>
      </trkpt>
      <trkpt lat="45.9973" lon="6.46661">
        <ele>2021</ele>
        <time>2018-04-14T07:49:58Z</time>
      </trkpt>
      <trkpt lat="45.99733" lon="6.46648">
        <ele>2021</ele>
        <time>2018-04-14T07:50:13Z</time>
      </trkpt>
      <trkpt lat="45.99738" lon="6.46656">
        <ele>2023</ele>
        <time>2018-04-14T07:50:24Z</time>
      </trkpt>
      <trkpt lat="45.99744" lon="6.46661">
        <ele>2027</ele>
        <time>2018-04-14T07:50:32Z</time>
      </trkpt>
      <trkpt lat="45.99749" lon="6.46655">
        <ele>2026</ele>
        <time>2018-04-14T07:50:46Z</time>
      </trkpt>
      <trkpt lat="45.99751" lon="6.46639">
        <ele>2054</ele>
        <time>2018-04-14T07:51:01Z</time>
      </trkpt>
      <trkpt lat="45.99756" lon="6.46637">
        <ele>2056</ele>
        <time>2018-04-14T07:51:15Z</time>
      </trkpt>
      <trkpt lat="45.99755" lon="6.46638">
        <ele>2055</ele>
        <time>2018-04-14T07:51:16Z</time>
      </trkpt>
      <trkpt lat="45.99762" lon="6.4665">
        <ele>2053</ele>
        <time>2018-04-14T07:51:31Z</time>
      </trkpt>
      <trkpt lat="45.99763" lon="6.46655">
        <ele>2051</ele>
        <time>2018-04-14T07:51:42Z</time>
      </trkpt>
      <trkpt lat="45.99767" lon="6.46644">
        <ele>2057</ele>
        <time>2018-04-14T07:51:58Z</time>
      </trkpt>
      <trkpt lat="45.99769" lon="6.46635">
        <ele>2060</ele>
        <time>2018-04-14T07:52:06Z</time>
      </trkpt>
      <trkpt lat="45.99771" lon="6.46624">
        <ele>2062</ele>
        <time>2018-04-14T07:52:22Z</time>
      </trkpt>
      <trkpt lat="45.99773" lon="6.4661">
        <ele>2063</ele>
        <time>2018-04-14T07:52:40Z</time>
      </trkpt>
      <trkpt lat="45.99778" lon="6.46614">
        <ele>2065</ele>
        <time>2018-04-14T07:52:52Z</time>
      </trkpt>
      <trkpt lat="45.99784" lon="6.46626">
        <ele>2067</ele>
        <time>2018-04-14T07:53:10Z</time>
      </trkpt>
      <trkpt lat="45.99789" lon="6.46637">
        <ele>2068</ele>
        <time>2018-04-14T07:53:31Z</time>
      </trkpt>
      <trkpt lat="45.99795" lon="6.46653">
        <ele>2071</ele>
        <time>2018-04-14T07:53:53Z</time>
      </trkpt>
      <trkpt lat="45.998" lon="6.46667">
        <ele>2068</ele>
        <time>2018-04-14T07:54:10Z</time>
      </trkpt>
      <trkpt lat="45.99805" lon="6.46678">
        <ele>2070</ele>
        <time>2018-04-14T07:54:27Z</time>
      </trkpt>
      <trkpt lat="45.9981" lon="6.46686">
        <ele>2072</ele>
        <time>2018-04-14T07:54:42Z</time>
      </trkpt>
      <trkpt lat="45.99815" lon="6.46678">
        <ele>2077</ele>
        <time>2018-04-14T07:54:59Z</time>
      </trkpt>
      <trkpt lat="45.99818" lon="6.46673">
        <ele>2080</ele>
        <time>2018-04-14T07:55:05Z</time>
      </trkpt>
      <trkpt lat="45.9982" lon="6.46658">
        <ele>2085</ele>
        <time>2018-04-14T07:55:21Z</time>
      </trkpt>
      <trkpt lat="45.9982" lon="6.46648">
        <ele>2082</ele>
        <time>2018-04-14T07:55:38Z</time>
      </trkpt>
      <trkpt lat="45.99819" lon="6.46648">
        <ele>2082</ele>
        <time>2018-04-14T07:55:40Z</time>
      </trkpt>
      <trkpt lat="45.99819" lon="6.46634">
        <ele>2080</ele>
        <time>2018-04-14T07:56:00Z</time>
      </trkpt>
      <trkpt lat="45.99826" lon="6.46642">
        <ele>2083</ele>
        <time>2018-04-14T07:56:21Z</time>
      </trkpt>
      <trkpt lat="45.99839" lon="6.46627">
        <ele>2113</ele>
        <time>2018-04-14T07:56:42Z</time>
      </trkpt>
      <trkpt lat="45.99834" lon="6.46632">
        <ele>2112</ele>
        <time>2018-04-14T07:56:58Z</time>
      </trkpt>
      <trkpt lat="45.9983" lon="6.46644">
        <ele>2084</ele>
        <time>2018-04-14T07:57:02Z</time>
      </trkpt>
      <trkpt lat="45.99835" lon="6.46649">
        <ele>2109</ele>
        <time>2018-04-14T07:57:16Z</time>
      </trkpt>
      <trkpt lat="45.99836" lon="6.46651">
        <ele>2108</ele>
        <time>2018-04-14T07:57:17Z</time>
      </trkpt>
      <trkpt lat="45.99837" lon="6.46653">
        <ele>2108</ele>
        <time>2018-04-14T07:57:28Z</time>
      </trkpt>
      <trkpt lat="45.99838" lon="6.4664">
        <ele>2111</ele>
        <time>2018-04-14T07:57:44Z</time>
      </trkpt>
      <trkpt lat="45.99842" lon="6.46635">
        <ele>2113</ele>
        <time>2018-04-14T07:58:08Z</time>
      </trkpt>
      <trkpt lat="45.99851" lon="6.46645">
        <ele>2113</ele>
        <time>2018-04-14T07:58:28Z</time>
      </trkpt>
      <trkpt lat="45.99857" lon="6.46653">
        <ele>2113</ele>
        <time>2018-04-14T07:58:39Z</time>
      </trkpt>
      <trkpt lat="45.99862" lon="6.46663">
        <ele>2114</ele>
        <time>2018-04-14T07:58:51Z</time>
      </trkpt>
      <trkpt lat="45.99863" lon="6.46666">
        <ele>2114</ele>
        <time>2018-04-14T07:58:53Z</time>
      </trkpt>
      <trkpt lat="45.99866" lon="6.46673">
        <ele>2107</ele>
        <time>2018-04-14T07:59:06Z</time>
      </trkpt>
      <trkpt lat="45.99857" lon="6.46641">
        <ele>2114</ele>
        <time>2018-04-14T07:59:21Z</time>
      </trkpt>
      <trkpt lat="45.99847" lon="6.46606">
        <ele>2114</ele>
        <time>2018-04-14T07:59:36Z</time>
      </trkpt>
      <trkpt lat="45.99858" lon="6.46611">
        <ele>2117</ele>
        <time>2018-04-14T07:59:51Z</time>
      </trkpt>
      <trkpt lat="45.99864" lon="6.4661">
        <ele>2118</ele>
        <time>2018-04-14T08:00:06Z</time>
      </trkpt>
      <trkpt lat="45.9987" lon="6.46622">
        <ele>2118</ele>
        <time>2018-04-14T08:00:12Z</time>
      </trkpt>
      <trkpt lat="45.99871" lon="6.46623">
        <ele>2118</ele>
        <time>2018-04-14T08:00:13Z</time>
      </trkpt>
      <trkpt lat="45.99882" lon="6.4664">
        <ele>2119</ele>
        <time>2018-04-14T08:00:29Z</time>
      </trkpt>
      <trkpt lat="45.99886" lon="6.46644">
        <ele>2120</ele>
        <time>2018-04-14T08:00:36Z</time>
      </trkpt>
      <trkpt lat="45.9989" lon="6.46652">
        <ele>2121</ele>
        <time>2018-04-14T08:00:48Z</time>
      </trkpt>
      <trkpt lat="45.99893" lon="6.46643">
        <ele>2121</ele>
        <time>2018-04-14T08:01:01Z</time>
      </trkpt>
      <trkpt lat="45.99894" lon="6.4663">
        <ele>2122</ele>
        <time>2018-04-14T08:01:15Z</time>
      </trkpt>
      <trkpt lat="45.99895" lon="6.46617">
        <ele>2124</ele>
        <time>2018-04-14T08:01:31Z</time>
      </trkpt>
      <trkpt lat="45.99898" lon="6.46608">
        <ele>2125</ele>
        <time>2018-04-14T08:01:50Z</time>
      </trkpt>
      <trkpt lat="45.99907" lon="6.46619">
        <ele>2125</ele>
        <time>2018-04-14T08:02:08Z</time>
      </trkpt>
      <trkpt lat="45.99912" lon="6.46625">
        <ele>2125</ele>
        <time>2018-04-14T08:02:16Z</time>
      </trkpt>
      <trkpt lat="45.99919" lon="6.46632">
        <ele>2127</ele>
        <time>2018-04-14T08:02:29Z</time>
      </trkpt>
      <trkpt lat="45.99923" lon="6.46626">
        <ele>2127</ele>
        <time>2018-04-14T08:02:42Z</time>
      </trkpt>
      <trkpt lat="45.99923" lon="6.46624">
        <ele>2128</ele>
        <time>2018-04-14T08:02:43Z</time>
      </trkpt>
      <trkpt lat="45.99923" lon="6.46622">
        <ele>2128</ele>
        <time>2018-04-14T08:02:44Z</time>
      </trkpt>
      <trkpt lat="45.99922" lon="6.46611">
        <ele>2130</ele>
        <time>2018-04-14T08:02:54Z</time>
      </trkpt>
      <trkpt lat="45.99922" lon="6.4661">
        <ele>2130</ele>
        <time>2018-04-14T08:02:55Z</time>
      </trkpt>
      <trkpt lat="45.99921" lon="6.46594">
        <ele>2136</ele>
        <time>2018-04-14T08:03:09Z</time>
      </trkpt>
      <trkpt lat="45.9992" lon="6.46582">
        <ele>2142</ele>
        <time>2018-04-14T08:03:22Z</time>
      </trkpt>
      <trkpt lat="45.99921" lon="6.4657">
        <ele>2143</ele>
        <time>2018-04-14T08:03:36Z</time>
      </trkpt>
      <trkpt lat="45.99921" lon="6.46557">
        <ele>2144</ele>
        <time>2018-04-14T08:03:51Z</time>
      </trkpt>
      <trkpt lat="45.99921" lon="6.46555">
        <ele>2145</ele>
        <time>2018-04-14T08:03:53Z</time>
      </trkpt>
      <trkpt lat="45.99921" lon="6.46553">
        <ele>2145</ele>
        <time>2018-04-14T08:03:54Z</time>
      </trkpt>
      <trkpt lat="45.99919" lon="6.46538">
        <ele>2147</ele>
        <time>2018-04-14T08:04:09Z</time>
      </trkpt>
      <trkpt lat="45.9992" lon="6.46526">
        <ele>2150</ele>
        <time>2018-04-14T08:04:21Z</time>
      </trkpt>
      <trkpt lat="45.99922" lon="6.46516">
        <ele>2152</ele>
        <time>2018-04-14T08:04:35Z</time>
      </trkpt>
      <trkpt lat="45.99922" lon="6.46506">
        <ele>2156</ele>
        <time>2018-04-14T08:04:46Z</time>
      </trkpt>
      <trkpt lat="45.99931" lon="6.46506">
        <ele>2153</ele>
        <time>2018-04-14T08:05:01Z</time>
      </trkpt>
      <trkpt lat="45.99937" lon="6.46491">
        <ele>2165</ele>
        <time>2018-04-14T08:05:14Z</time>
      </trkpt>
      <trkpt lat="45.99942" lon="6.46472">
        <ele>2168</ele>
        <time>2018-04-14T08:05:31Z</time>
      </trkpt>
      <trkpt lat="45.99941" lon="6.46465">
        <ele>2169</ele>
        <time>2018-04-14T08:05:46Z</time>
      </trkpt>
      <trkpt lat="45.99941" lon="6.46465">
        <ele>2169</ele>
        <time>2018-04-14T08:05:51Z</time>
      </trkpt>
      <trkpt lat="45.9994" lon="6.46465">
        <ele>2170</ele>
        <time>2018-04-14T08:05:54Z</time>
      </trkpt>
      <trkpt lat="45.9994" lon="6.46464">
        <ele>2170</ele>
        <time>2018-04-14T08:05:58Z</time>
      </trkpt>
      <trkpt lat="45.99939" lon="6.46464">
        <ele>2170</ele>
        <time>2018-04-14T08:06:01Z</time>
      </trkpt>
      <trkpt lat="45.9994" lon="6.46464">
        <ele>2170</ele>
        <time>2018-04-14T08:06:05Z</time>
      </trkpt>
      <trkpt lat="45.9994" lon="6.4646">
        <ele>2171</ele>
        <time>2018-04-14T08:06:12Z</time>
      </trkpt>
      <trkpt lat="45.99941" lon="6.46458">
        <ele>2171</ele>
        <time>2018-04-14T08:06:14Z</time>
      </trkpt>
      <trkpt lat="45.9995" lon="6.46434">
        <ele>2175</ele>
        <time>2018-04-14T08:06:34Z</time>
      </trkpt>
      <trkpt lat="45.99954" lon="6.46426">
        <ele>2176</ele>
        <time>2018-04-14T08:06:41Z</time>
      </trkpt>
      <trkpt lat="45.99957" lon="6.46423">
        <ele>2176</ele>
        <time>2018-04-14T08:06:45Z</time>
      </trkpt>
      <trkpt lat="45.99959" lon="6.46419">
        <ele>2176</ele>
        <time>2018-04-14T08:06:49Z</time>
      </trkpt>
      <trkpt lat="45.99962" lon="6.46415">
        <ele>2205</ele>
        <time>2018-04-14T08:06:54Z</time>
      </trkpt>
      <trkpt lat="45.99967" lon="6.46409">
        <ele>2205</ele>
        <time>2018-04-14T08:07:02Z</time>
      </trkpt>
      <trkpt lat="45.99976" lon="6.46399">
        <ele>2205</ele>
        <time>2018-04-14T08:07:17Z</time>
      </trkpt>
      <trkpt lat="45.99979" lon="6.46396">
        <ele>2205</ele>
        <time>2018-04-14T08:07:23Z</time>
      </trkpt>
      <trkpt lat="45.99981" lon="6.46393">
        <ele>2205</ele>
        <time>2018-04-14T08:07:27Z</time>
      </trkpt>
      <trkpt lat="45.99987" lon="6.46384">
        <ele>2207</ele>
        <time>2018-04-14T08:07:45Z</time>
      </trkpt>
      <trkpt lat="45.99987" lon="6.4638">
        <ele>2209</ele>
        <time>2018-04-14T08:07:59Z</time>
      </trkpt>
      <trkpt lat="45.9999" lon="6.46371">
        <ele>2211</ele>
        <time>2018-04-14T08:08:17Z</time>
      </trkpt>
      <trkpt lat="45.9999" lon="6.46367">
        <ele>2212</ele>
        <time>2018-04-14T08:08:31Z</time>
      </trkpt>
      <trkpt lat="46.00002" lon="6.46358">
        <ele>2194</ele>
        <time>2018-04-14T08:08:50Z</time>
      </trkpt>
      <trkpt lat="46.00011" lon="6.46353">
        <ele>2196</ele>
        <time>2018-04-14T08:09:14Z</time>
      </trkpt>
      <trkpt lat="46.00013" lon="6.46347">
        <ele>2197</ele>
        <time>2018-04-14T08:09:31Z</time>
      </trkpt>
      <trkpt lat="46.00016" lon="6.46334">
        <ele>2199</ele>
        <time>2018-04-14T08:09:57Z</time>
      </trkpt>
      <trkpt lat="46.0002" lon="6.46326">
        <ele>2210</ele>
        <time>2018-04-14T08:10:16Z</time>
      </trkpt>
      <trkpt lat="46.00022" lon="6.46313">
        <ele>2211</ele>
        <time>2018-04-14T08:10:39Z</time>
      </trkpt>
      <trkpt lat="46.00025" lon="6.46311">
        <ele>2211</ele>
        <time>2018-04-14T08:10:48Z</time>
      </trkpt>
      <trkpt lat="46.00031" lon="6.463">
        <ele>2212</ele>
        <time>2018-04-14T08:11:10Z</time>
      </trkpt>
      <trkpt lat="46.0004" lon="6.46291">
        <ele>2213</ele>
        <time>2018-04-14T08:11:30Z</time>
      </trkpt>
      <trkpt lat="46.00048" lon="6.46281">
        <ele>2214</ele>
        <time>2018-04-14T08:11:49Z</time>
      </trkpt>
      <trkpt lat="46.00057" lon="6.46273">
        <ele>2216</ele>
        <time>2018-04-14T08:12:07Z</time>
      </trkpt>
      <trkpt lat="46.00061" lon="6.4626">
        <ele>2219</ele>
        <time>2018-04-14T08:12:26Z</time>
      </trkpt>
      <trkpt lat="46.00064" lon="6.4625">
        <ele>2222</ele>
        <time>2018-04-14T08:12:37Z</time>
      </trkpt>
      <trkpt lat="46.00066" lon="6.46243">
        <ele>2222</ele>
        <time>2018-04-14T08:12:51Z</time>
      </trkpt>
      <trkpt lat="46.00062" lon="6.46242">
        <ele>2221</ele>
        <time>2018-04-14T08:12:59Z</time>
      </trkpt>
      <trkpt lat="46.00057" lon="6.4624">
        <ele>2220</ele>
        <time>2018-04-14T08:13:07Z</time>
      </trkpt>
      <trkpt lat="46.00057" lon="6.46238">
        <ele>2220</ele>
        <time>2018-04-14T08:13:09Z</time>
      </trkpt>
      <trkpt lat="46.00065" lon="6.46231">
        <ele>2220</ele>
        <time>2018-04-14T08:13:36Z</time>
      </trkpt>
      <trkpt lat="46.00065" lon="6.46231">
        <ele>2221</ele>
        <time>2018-04-14T08:13:37Z</time>
      </trkpt>
      <trkpt lat="46.00067" lon="6.46232">
        <ele>2221</ele>
        <time>2018-04-14T08:13:42Z</time>
      </trkpt>
      <trkpt lat="46.00067" lon="6.46232">
        <ele>2221</ele>
        <time>2018-04-14T08:13:46Z</time>
      </trkpt>
      <trkpt lat="46.00064" lon="6.46232">
        <ele>2220</ele>
        <time>2018-04-14T08:13:53Z</time>
      </trkpt>
      <trkpt lat="46.00051" lon="6.46235">
        <ele>2219</ele>
        <time>2018-04-14T08:14:08Z</time>
      </trkpt>
      <trkpt lat="46.00044" lon="6.46231">
        <ele>2218</ele>
        <time>2018-04-14T08:14:25Z</time>
      </trkpt>
      <trkpt lat="46.00046" lon="6.46229">
        <ele>2218</ele>
        <time>2018-04-14T08:14:32Z</time>
      </trkpt>
      <trkpt lat="46.00048" lon="6.46225">
        <ele>2218</ele>
        <time>2018-04-14T08:15:07Z</time>
      </trkpt>
      <trkpt lat="46.00048" lon="6.46224">
        <ele>2218</ele>
        <time>2018-04-14T08:15:13Z</time>
      </trkpt>
      <trkpt lat="46.00049" lon="6.46224">
        <ele>2218</ele>
        <time>2018-04-14T08:15:18Z</time>
      </trkpt>
      <trkpt lat="46.00048" lon="6.46225">
        <ele>2218</ele>
        <time>2018-04-14T08:15:23Z</time>
      </trkpt>
      <trkpt lat="46.00047" lon="6.46225">
        <ele>2218</ele>
        <time>2018-04-14T08:15:26Z</time>
      </trkpt>
      <trkpt lat="46.00046" lon="6.46225">
        <ele>2218</ele>
        <time>2018-04-14T08:15:28Z</time>
      </trkpt>
      <trkpt lat="46.00045" lon="6.46225">
        <ele>2218</ele>
        <time>2018-04-14T08:15:29Z</time>
      </trkpt>
      <trkpt lat="46.00043" lon="6.46225">
        <ele>2217</ele>
        <time>2018-04-14T08:15:32Z</time>
      </trkpt>
      <trkpt lat="46.00042" lon="6.46224">
        <ele>2217</ele>
        <time>2018-04-14T08:15:34Z</time>
      </trkpt>
      <trkpt lat="46.00039" lon="6.46223">
        <ele>2217</ele>
        <time>2018-04-14T08:15:39Z</time>
      </trkpt>
      <trkpt lat="46.00043" lon="6.46224">
        <ele>2217</ele>
        <time>2018-04-14T08:15:46Z</time>
      </trkpt>
      <trkpt lat="46.00047" lon="6.46223">
        <ele>2218</ele>
        <time>2018-04-14T08:15:52Z</time>
      </trkpt>
      <trkpt lat="46.00051" lon="6.46221">
        <ele>2218</ele>
        <time>2018-04-14T08:16:00Z</time>
      </trkpt>
      <trkpt lat="46.00051" lon="6.4622">
        <ele>2218</ele>
        <time>2018-04-14T08:16:05Z</time>
      </trkpt>
      <trkpt lat="46.00052" lon="6.4622">
        <ele>2218</ele>
        <time>2018-04-14T08:16:07Z</time>
      </trkpt>
      <trkpt lat="46.0005" lon="6.4622">
        <ele>2218</ele>
        <time>2018-04-14T08:16:09Z</time>
      </trkpt>
      <trkpt lat="46.00048" lon="6.46224">
        <ele>2218</ele>
        <time>2018-04-14T08:16:20Z</time>
      </trkpt>
      <trkpt lat="46.00049" lon="6.46224">
        <ele>2218</ele>
        <time>2018-04-14T08:16:24Z</time>
      </trkpt>
      <trkpt lat="46.00047" lon="6.46227">
        <ele>2218</ele>
        <time>2018-04-14T08:16:45Z</time>
      </trkpt>
      <trkpt lat="46.00047" lon="6.46226">
        <ele>2218</ele>
        <time>2018-04-14T08:16:53Z</time>
      </trkpt>
      <trkpt lat="46.00047" lon="6.46227">
        <ele>2218</ele>
        <time>2018-04-14T08:17:04Z</time>
      </trkpt>
      <trkpt lat="46.00046" lon="6.46227">
        <ele>2218</ele>
        <time>2018-04-14T08:17:12Z</time>
      </trkpt>
      <trkpt lat="46.00044" lon="6.46227">
        <ele>2218</ele>
        <time>2018-04-14T08:17:15Z</time>
      </trkpt>
      <trkpt lat="46.00045" lon="6.46228">
        <ele>2218</ele>
        <time>2018-04-14T08:17:19Z</time>
      </trkpt>
      <trkpt lat="46.00047" lon="6.46228">
        <ele>2218</ele>
        <time>2018-04-14T08:17:26Z</time>
      </trkpt>
      <trkpt lat="46.00047" lon="6.46228">
        <ele>2218</ele>
        <time>2018-04-14T08:17:29Z</time>
      </trkpt>
      <trkpt lat="46.00048" lon="6.46227">
        <ele>2218</ele>
        <time>2018-04-14T08:17:32Z</time>
      </trkpt>
      <trkpt lat="46.00051" lon="6.46228">
        <ele>2218</ele>
        <time>2018-04-14T08:17:50Z</time>
      </trkpt>
      <trkpt lat="46.00053" lon="6.46229">
        <ele>2219</ele>
        <time>2018-04-14T08:18:19Z</time>
      </trkpt>
      <trkpt lat="46.00054" lon="6.46229">
        <ele>2219</ele>
        <time>2018-04-14T08:18:24Z</time>
      </trkpt>
      <trkpt lat="46.00054" lon="6.46228">
        <ele>2219</ele>
        <time>2018-04-14T08:18:33Z</time>
      </trkpt>
      <trkpt lat="46.00053" lon="6.46228">
        <ele>2219</ele>
        <time>2018-04-14T08:18:37Z</time>
      </trkpt>
      <trkpt lat="46.00053" lon="6.46228">
        <ele>2219</ele>
        <time>2018-04-14T08:18:39Z</time>
      </trkpt>
      <trkpt lat="46.00052" lon="6.46227">
        <ele>2218</ele>
        <time>2018-04-14T08:18:43Z</time>
      </trkpt>
      <trkpt lat="46.00053" lon="6.46229">
        <ele>2219</ele>
        <time>2018-04-14T08:18:56Z</time>
      </trkpt>
      <trkpt lat="46.00053" lon="6.46228">
        <ele>2219</ele>
        <time>2018-04-14T08:18:59Z</time>
      </trkpt>
      <trkpt lat="46.00052" lon="6.46228">
        <ele>2219</ele>
        <time>2018-04-14T08:19:02Z</time>
      </trkpt>
      <trkpt lat="46.00054" lon="6.46228">
        <ele>2219</ele>
        <time>2018-04-14T08:19:06Z</time>
      </trkpt>
      <trkpt lat="46.00055" lon="6.46228">
        <ele>2219</ele>
        <time>2018-04-14T08:19:10Z</time>
      </trkpt>
      <trkpt lat="46.00058" lon="6.46229">
        <ele>2219</ele>
        <time>2018-04-14T08:19:19Z</time>
      </trkpt>
      <trkpt lat="46.00058" lon="6.4623">
        <ele>2219</ele>
        <time>2018-04-14T08:19:22Z</time>
      </trkpt>
      <trkpt lat="46.00059" lon="6.4623">
        <ele>2220</ele>
        <time>2018-04-14T08:19:27Z</time>
      </trkpt>
      <trkpt lat="46.00061" lon="6.4623">
        <ele>2220</ele>
        <time>2018-04-14T08:19:35Z</time>
      </trkpt>
      <trkpt lat="46.00061" lon="6.46231">
        <ele>2220</ele>
        <time>2018-04-14T08:19:50Z</time>
      </trkpt>
      <trkpt lat="46.00062" lon="6.46231">
        <ele>2220</ele>
        <time>2018-04-14T08:19:54Z</time>
      </trkpt>
      <trkpt lat="46.00057" lon="6.46231">
        <ele>2219</ele>
        <time>2018-04-14T08:20:01Z</time>
      </trkpt>
      <trkpt lat="46.00058" lon="6.46231">
        <ele>2219</ele>
        <time>2018-04-14T08:20:04Z</time>
      </trkpt>
      <trkpt lat="46.00057" lon="6.4623">
        <ele>2219</ele>
        <time>2018-04-14T08:20:07Z</time>
      </trkpt>
      <trkpt lat="46.00058" lon="6.4623">
        <ele>2219</ele>
        <time>2018-04-14T08:20:17Z</time>
      </trkpt>
      <trkpt lat="46.00062" lon="6.46232">
        <ele>2220</ele>
        <time>2018-04-14T08:20:19Z</time>
      </trkpt>
      <trkpt lat="46.00065" lon="6.46232">
        <ele>2221</ele>
        <time>2018-04-14T08:20:39Z</time>
      </trkpt>
      <trkpt lat="46.00063" lon="6.4623">
        <ele>2220</ele>
        <time>2018-04-14T08:20:49Z</time>
      </trkpt>
      <trkpt lat="46.00064" lon="6.4623">
        <ele>2220</ele>
        <time>2018-04-14T08:21:06Z</time>
      </trkpt>
      <trkpt lat="46.00063" lon="6.4623">
        <ele>2220</ele>
        <time>2018-04-14T08:21:12Z</time>
      </trkpt>
      <trkpt lat="46.00063" lon="6.4623">
        <ele>2220</ele>
        <time>2018-04-14T08:21:14Z</time>
      </trkpt>
      <trkpt lat="46.00063" lon="6.4623">
        <ele>2220</ele>
        <time>2018-04-14T08:21:17Z</time>
      </trkpt>
      <trkpt lat="46.00063" lon="6.4623">
        <ele>2220</ele>
        <time>2018-04-14T08:21:19Z</time>
      </trkpt>
      <trkpt lat="46.00063" lon="6.46231">
        <ele>2220</ele>
        <time>2018-04-14T08:21:22Z</time>
      </trkpt>
      <trkpt lat="46.00065" lon="6.46232">
        <ele>2220</ele>
        <time>2018-04-14T08:21:33Z</time>
      </trkpt>
      <trkpt lat="46.00065" lon="6.46232">
        <ele>2221</ele>
        <time>2018-04-14T08:21:37Z</time>
      </trkpt>
      <trkpt lat="46.00066" lon="6.46232">
        <ele>2221</ele>
        <time>2018-04-14T08:21:44Z</time>
      </trkpt>
      <trkpt lat="46.00065" lon="6.46232">
        <ele>2220</ele>
        <time>2018-04-14T08:21:46Z</time>
      </trkpt>
      <trkpt lat="46.00065" lon="6.46231">
        <ele>2220</ele>
        <time>2018-04-14T08:21:56Z</time>
      </trkpt>
      <trkpt lat="46.00066" lon="6.46231">
        <ele>2221</ele>
        <time>2018-04-14T08:22:05Z</time>
      </trkpt>
      <trkpt lat="46.00065" lon="6.46231">
        <ele>2220</ele>
        <time>2018-04-14T08:22:12Z</time>
      </trkpt>
      <trkpt lat="46.00064" lon="6.46231">
        <ele>2220</ele>
        <time>2018-04-14T08:22:16Z</time>
      </trkpt>
      <trkpt lat="46.00064" lon="6.46231">
        <ele>2220</ele>
        <time>2018-04-14T08:22:18Z</time>
      </trkpt>
      <trkpt lat="46.00063" lon="6.4623">
        <ele>2220</ele>
        <time>2018-04-14T08:22:25Z</time>
      </trkpt>
      <trkpt lat="46.00061" lon="6.4623">
        <ele>2220</ele>
        <time>2018-04-14T08:22:33Z</time>
      </trkpt>
      <trkpt lat="46.00062" lon="6.46229">
        <ele>2220</ele>
        <time>2018-04-14T08:22:40Z</time>
      </trkpt>
      <trkpt lat="46.00062" lon="6.46229">
        <ele>2220</ele>
        <time>2018-04-14T08:22:43Z</time>
      </trkpt>
      <trkpt lat="46.00061" lon="6.46229">
        <ele>2220</ele>
        <time>2018-04-14T08:22:48Z</time>
      </trkpt>
      <trkpt lat="46.00063" lon="6.46231">
        <ele>2220</ele>
        <time>2018-04-14T08:22:56Z</time>
      </trkpt>
      <trkpt lat="46.00066" lon="6.46232">
        <ele>2221</ele>
        <time>2018-04-14T08:23:00Z</time>
      </trkpt>
      <trkpt lat="46.00068" lon="6.46234">
        <ele>2221</ele>
        <time>2018-04-14T08:23:09Z</time>
      </trkpt>
      <trkpt lat="46.00068" lon="6.46234">
        <ele>2221</ele>
        <time>2018-04-14T08:23:21Z</time>
      </trkpt>
      <trkpt lat="46.00068" lon="6.46231">
        <ele>2221</ele>
        <time>2018-04-14T08:23:27Z</time>
      </trkpt>
      <trkpt lat="46.00068" lon="6.4623">
        <ele>2221</ele>
        <time>2018-04-14T08:23:31Z</time>
      </trkpt>
      <trkpt lat="46.00068" lon="6.46231">
        <ele>2221</ele>
        <time>2018-04-14T08:24:10Z</time>
      </trkpt>
      <trkpt lat="46.00069" lon="6.46231">
        <ele>2221</ele>
        <time>2018-04-14T08:24:26Z</time>
      </trkpt>
      <trkpt lat="46.00069" lon="6.46231">
        <ele>2221</ele>
        <time>2018-04-14T08:24:30Z</time>
      </trkpt>
      <trkpt lat="46.00069" lon="6.46231">
        <ele>2221</ele>
        <time>2018-04-14T08:24:36Z</time>
      </trkpt>
      <trkpt lat="46.0007" lon="6.46231">
        <ele>2221</ele>
        <time>2018-04-14T08:24:50Z</time>
      </trkpt>
      <trkpt lat="46.00069" lon="6.46231">
        <ele>2221</ele>
        <time>2018-04-14T08:24:53Z</time>
      </trkpt>
      <trkpt lat="46.0007" lon="6.46232">
        <ele>2221</ele>
        <time>2018-04-14T08:25:01Z</time>
      </trkpt>
      <trkpt lat="46.0007" lon="6.46232">
        <ele>2221</ele>
        <time>2018-04-14T08:25:11Z</time>
      </trkpt>
      <trkpt lat="46.00072" lon="6.46235">
        <ele>2222</ele>
        <time>2018-04-14T08:25:21Z</time>
      </trkpt>
      <trkpt lat="46.00072" lon="6.4624">
        <ele>2223</ele>
        <time>2018-04-14T08:25:24Z</time>
      </trkpt>
      <trkpt lat="46.00076" lon="6.46242">
        <ele>2225</ele>
        <time>2018-04-14T08:25:26Z</time>
      </trkpt>
      <trkpt lat="46.00081" lon="6.46244">
        <ele>2226</ele>
        <time>2018-04-14T08:25:27Z</time>
      </trkpt>
      <trkpt lat="46.00085" lon="6.46248">
        <ele>2227</ele>
        <time>2018-04-14T08:25:28Z</time>
      </trkpt>
      <trkpt lat="46.00093" lon="6.46263">
        <ele>2221</ele>
        <time>2018-04-14T08:25:30Z</time>
      </trkpt>
      <trkpt lat="46.00097" lon="6.4627">
        <ele>2218</ele>
        <time>2018-04-14T08:25:31Z</time>
      </trkpt>
      <trkpt lat="46.00096" lon="6.46275">
        <ele>2217</ele>
        <time>2018-04-14T08:25:32Z</time>
      </trkpt>
      <trkpt lat="46.00094" lon="6.46279">
        <ele>2216</ele>
        <time>2018-04-14T08:25:33Z</time>
      </trkpt>
      <trkpt lat="46.0009" lon="6.46283">
        <ele>2215</ele>
        <time>2018-04-14T08:25:34Z</time>
      </trkpt>
      <trkpt lat="46.00086" lon="6.46288">
        <ele>2214</ele>
        <time>2018-04-14T08:25:35Z</time>
      </trkpt>
      <trkpt lat="46.00089" lon="6.46296">
        <ele>2212</ele>
        <time>2018-04-14T08:25:36Z</time>
      </trkpt>
      <trkpt lat="46.00087" lon="6.46306">
        <ele>2209</ele>
        <time>2018-04-14T08:25:37Z</time>
      </trkpt>
      <trkpt lat="46.00083" lon="6.46315">
        <ele>2207</ele>
        <time>2018-04-14T08:25:38Z</time>
      </trkpt>
      <trkpt lat="46.00076" lon="6.46322">
        <ele>2205</ele>
        <time>2018-04-14T08:25:39Z</time>
      </trkpt>
      <trkpt lat="46.0007" lon="6.46329">
        <ele>2205</ele>
        <time>2018-04-14T08:25:40Z</time>
      </trkpt>
      <trkpt lat="46.00063" lon="6.46334">
        <ele>2193</ele>
        <time>2018-04-14T08:25:41Z</time>
      </trkpt>
      <trkpt lat="46.00057" lon="6.46338">
        <ele>2192</ele>
        <time>2018-04-14T08:25:42Z</time>
      </trkpt>
      <trkpt lat="46.00051" lon="6.46343">
        <ele>2192</ele>
        <time>2018-04-14T08:25:43Z</time>
      </trkpt>
      <trkpt lat="46.00034" lon="6.46361">
        <ele>2190</ele>
        <time>2018-04-14T08:25:47Z</time>
      </trkpt>
      <trkpt lat="46.0003" lon="6.46365">
        <ele>2190</ele>
        <time>2018-04-14T08:25:48Z</time>
      </trkpt>
      <trkpt lat="46.00026" lon="6.46368">
        <ele>2189</ele>
        <time>2018-04-14T08:25:49Z</time>
      </trkpt>
      <trkpt lat="46.00019" lon="6.46375">
        <ele>2188</ele>
        <time>2018-04-14T08:25:51Z</time>
      </trkpt>
      <trkpt lat="46.00008" lon="6.46392">
        <ele>2184</ele>
        <time>2018-04-14T08:25:55Z</time>
      </trkpt>
      <trkpt lat="45.9999" lon="6.46407">
        <ele>2194</ele>
        <time>2018-04-14T08:25:59Z</time>
      </trkpt>
      <trkpt lat="45.9997" lon="6.46423">
        <ele>2174</ele>
        <time>2018-04-14T08:26:03Z</time>
      </trkpt>
      <trkpt lat="45.99954" lon="6.46442">
        <ele>2173</ele>
        <time>2018-04-14T08:26:06Z</time>
      </trkpt>
      <trkpt lat="45.9995" lon="6.46448">
        <ele>2172</ele>
        <time>2018-04-14T08:26:07Z</time>
      </trkpt>
      <trkpt lat="45.99943" lon="6.46459">
        <ele>2171</ele>
        <time>2018-04-14T08:26:09Z</time>
      </trkpt>
      <trkpt lat="45.99939" lon="6.46463">
        <ele>2170</ele>
        <time>2018-04-14T08:26:10Z</time>
      </trkpt>
      <trkpt lat="45.99936" lon="6.46466">
        <ele>2169</ele>
        <time>2018-04-14T08:26:11Z</time>
      </trkpt>
      <trkpt lat="45.99932" lon="6.46472">
        <ele>2168</ele>
        <time>2018-04-14T08:26:12Z</time>
      </trkpt>
      <trkpt lat="45.9993" lon="6.46478">
        <ele>2167</ele>
        <time>2018-04-14T08:26:13Z</time>
      </trkpt>
      <trkpt lat="45.99929" lon="6.46486">
        <ele>2165</ele>
        <time>2018-04-14T08:26:14Z</time>
      </trkpt>
      <trkpt lat="45.99928" lon="6.46494">
        <ele>2164</ele>
        <time>2018-04-14T08:26:15Z</time>
      </trkpt>
      <trkpt lat="45.99927" lon="6.46502">
        <ele>2154</ele>
        <time>2018-04-14T08:26:16Z</time>
      </trkpt>
      <trkpt lat="45.99926" lon="6.4651">
        <ele>2153</ele>
        <time>2018-04-14T08:26:17Z</time>
      </trkpt>
      <trkpt lat="45.99925" lon="6.46512">
        <ele>2153</ele>
        <time>2018-04-14T08:26:18Z</time>
      </trkpt>
      <trkpt lat="45.99924" lon="6.46512">
        <ele>2153</ele>
        <time>2018-04-14T08:26:19Z</time>
      </trkpt>
      <trkpt lat="45.99922" lon="6.4651">
        <ele>2154</ele>
        <time>2018-04-14T08:26:20Z</time>
      </trkpt>
      <trkpt lat="45.99919" lon="6.4651">
        <ele>2155</ele>
        <time>2018-04-14T08:26:31Z</time>
      </trkpt>
      <trkpt lat="45.99917" lon="6.46513">
        <ele>2150</ele>
        <time>2018-04-14T08:26:32Z</time>
      </trkpt>
      <trkpt lat="45.99913" lon="6.46519">
        <ele>2147</ele>
        <time>2018-04-14T08:26:33Z</time>
      </trkpt>
      <trkpt lat="45.99909" lon="6.46523">
        <ele>2145</ele>
        <time>2018-04-14T08:26:34Z</time>
      </trkpt>
      <trkpt lat="45.99903" lon="6.46526">
        <ele>2142</ele>
        <time>2018-04-14T08:26:35Z</time>
      </trkpt>
      <trkpt lat="45.99899" lon="6.46532">
        <ele>2140</ele>
        <time>2018-04-14T08:26:36Z</time>
      </trkpt>
      <trkpt lat="45.99894" lon="6.46536">
        <ele>2139</ele>
        <time>2018-04-14T08:26:37Z</time>
      </trkpt>
      <trkpt lat="45.99889" lon="6.46537">
        <ele>2138</ele>
        <time>2018-04-14T08:26:38Z</time>
      </trkpt>
      <trkpt lat="45.99884" lon="6.46542">
        <ele>2136</ele>
        <time>2018-04-14T08:26:39Z</time>
      </trkpt>
      <trkpt lat="45.99878" lon="6.46548">
        <ele>2134</ele>
        <time>2018-04-14T08:26:40Z</time>
      </trkpt>
      <trkpt lat="45.99872" lon="6.4655">
        <ele>2133</ele>
        <time>2018-04-14T08:26:41Z</time>
      </trkpt>
      <trkpt lat="45.99865" lon="6.46553">
        <ele>2131</ele>
        <time>2018-04-14T08:26:42Z</time>
      </trkpt>
      <trkpt lat="45.99861" lon="6.46559">
        <ele>2129</ele>
        <time>2018-04-14T08:26:43Z</time>
      </trkpt>
      <trkpt lat="45.99856" lon="6.46563">
        <ele>2127</ele>
        <time>2018-04-14T08:26:44Z</time>
      </trkpt>
      <trkpt lat="45.99851" lon="6.46566">
        <ele>2124</ele>
        <time>2018-04-14T08:26:45Z</time>
      </trkpt>
      <trkpt lat="45.99847" lon="6.46572">
        <ele>2121</ele>
        <time>2018-04-14T08:26:46Z</time>
      </trkpt>
      <trkpt lat="45.99841" lon="6.46575">
        <ele>2117</ele>
        <time>2018-04-14T08:26:47Z</time>
      </trkpt>
      <trkpt lat="45.99835" lon="6.46578">
        <ele>2113</ele>
        <time>2018-04-14T08:26:48Z</time>
      </trkpt>
      <trkpt lat="45.99831" lon="6.46585">
        <ele>2104</ele>
        <time>2018-04-14T08:26:49Z</time>
      </trkpt>
      <trkpt lat="45.99829" lon="6.46593">
        <ele>2094</ele>
        <time>2018-04-14T08:26:50Z</time>
      </trkpt>
      <trkpt lat="45.99825" lon="6.46598">
        <ele>2090</ele>
        <time>2018-04-14T08:26:51Z</time>
      </trkpt>
      <trkpt lat="45.99821" lon="6.46602">
        <ele>2086</ele>
        <time>2018-04-14T08:26:52Z</time>
      </trkpt>
      <trkpt lat="45.99818" lon="6.4661">
        <ele>2082</ele>
        <time>2018-04-14T08:26:53Z</time>
      </trkpt>
      <trkpt lat="45.99813" lon="6.46618">
        <ele>2079</ele>
        <time>2018-04-14T08:26:54Z</time>
      </trkpt>
      <trkpt lat="45.99807" lon="6.4662">
        <ele>2076</ele>
        <time>2018-04-14T08:26:55Z</time>
      </trkpt>
      <trkpt lat="45.99803" lon="6.46625">
        <ele>2074</ele>
        <time>2018-04-14T08:26:56Z</time>
      </trkpt>
      <trkpt lat="45.99797" lon="6.46629">
        <ele>2072</ele>
        <time>2018-04-14T08:26:57Z</time>
      </trkpt>
      <trkpt lat="45.99791" lon="6.46632">
        <ele>2069</ele>
        <time>2018-04-14T08:26:58Z</time>
      </trkpt>
      <trkpt lat="45.99787" lon="6.46638">
        <ele>2067</ele>
        <time>2018-04-14T08:26:59Z</time>
      </trkpt>
      <trkpt lat="45.99781" lon="6.46644">
        <ele>2064</ele>
        <time>2018-04-14T08:27:00Z</time>
      </trkpt>
      <trkpt lat="45.99775" lon="6.46646">
        <ele>2060</ele>
        <time>2018-04-14T08:27:01Z</time>
      </trkpt>
      <trkpt lat="45.99768" lon="6.46646">
        <ele>2057</ele>
        <time>2018-04-14T08:27:02Z</time>
      </trkpt>
      <trkpt lat="45.99762" lon="6.46651">
        <ele>2052</ele>
        <time>2018-04-14T08:27:03Z</time>
      </trkpt>
      <trkpt lat="45.99755" lon="6.46655">
        <ele>2046</ele>
        <time>2018-04-14T08:27:04Z</time>
      </trkpt>
      <trkpt lat="45.99748" lon="6.4666">
        <ele>2027</ele>
        <time>2018-04-14T08:27:05Z</time>
      </trkpt>
      <trkpt lat="45.9974" lon="6.46662">
        <ele>2025</ele>
        <time>2018-04-14T08:27:06Z</time>
      </trkpt>
      <trkpt lat="45.99734" lon="6.46666">
        <ele>2023</ele>
        <time>2018-04-14T08:27:07Z</time>
      </trkpt>
      <trkpt lat="45.99728" lon="6.46672">
        <ele>2012</ele>
        <time>2018-04-14T08:27:08Z</time>
      </trkpt>
      <trkpt lat="45.99722" lon="6.46677">
        <ele>2008</ele>
        <time>2018-04-14T08:27:09Z</time>
      </trkpt>
      <trkpt lat="45.99717" lon="6.46683">
        <ele>2005</ele>
        <time>2018-04-14T08:27:10Z</time>
      </trkpt>
      <trkpt lat="45.99713" lon="6.46687">
        <ele>2003</ele>
        <time>2018-04-14T08:27:11Z</time>
      </trkpt>
      <trkpt lat="45.9971" lon="6.46685">
        <ele>2002</ele>
        <time>2018-04-14T08:27:12Z</time>
      </trkpt>
      <trkpt lat="45.99706" lon="6.46685">
        <ele>2000</ele>
        <time>2018-04-14T08:27:13Z</time>
      </trkpt>
      <trkpt lat="45.99705" lon="6.46687">
        <ele>2000</ele>
        <time>2018-04-14T08:27:14Z</time>
      </trkpt>
      <trkpt lat="45.99706" lon="6.46691">
        <ele>2000</ele>
        <time>2018-04-14T08:27:15Z</time>
      </trkpt>
      <trkpt lat="45.99707" lon="6.46695">
        <ele>2000</ele>
        <time>2018-04-14T08:27:16Z</time>
      </trkpt>
      <trkpt lat="45.99708" lon="6.46699">
        <ele>2001</ele>
        <time>2018-04-14T08:27:17Z</time>
      </trkpt>
      <trkpt lat="45.9971" lon="6.46718">
        <ele>2000</ele>
        <time>2018-04-14T08:27:22Z</time>
      </trkpt>
      <trkpt lat="45.99705" lon="6.46719">
        <ele>1998</ele>
        <time>2018-04-14T08:27:23Z</time>
      </trkpt>
      <trkpt lat="45.997" lon="6.46723">
        <ele>1996</ele>
        <time>2018-04-14T08:27:24Z</time>
      </trkpt>
      <trkpt lat="45.99693" lon="6.46727">
        <ele>1993</ele>
        <time>2018-04-14T08:27:25Z</time>
      </trkpt>
      <trkpt lat="45.99685" lon="6.46734">
        <ele>1987</ele>
        <time>2018-04-14T08:27:26Z</time>
      </trkpt>
      <trkpt lat="45.99676" lon="6.46739">
        <ele>1980</ele>
        <time>2018-04-14T08:27:27Z</time>
      </trkpt>
      <trkpt lat="45.99667" lon="6.46744">
        <ele>1973</ele>
        <time>2018-04-14T08:27:28Z</time>
      </trkpt>
      <trkpt lat="45.99658" lon="6.46749">
        <ele>1962</ele>
        <time>2018-04-14T08:27:29Z</time>
      </trkpt>
      <trkpt lat="45.9965" lon="6.46754">
        <ele>1952</ele>
        <time>2018-04-14T08:27:30Z</time>
      </trkpt>
      <trkpt lat="45.99642" lon="6.4676">
        <ele>1948</ele>
        <time>2018-04-14T08:27:31Z</time>
      </trkpt>
      <trkpt lat="45.99636" lon="6.46764">
        <ele>1945</ele>
        <time>2018-04-14T08:27:32Z</time>
      </trkpt>
      <trkpt lat="45.99632" lon="6.46772">
        <ele>1943</ele>
        <time>2018-04-14T08:27:33Z</time>
      </trkpt>
      <trkpt lat="45.9963" lon="6.46777">
        <ele>1942</ele>
        <time>2018-04-14T08:27:34Z</time>
      </trkpt>
      <trkpt lat="45.99622" lon="6.46791">
        <ele>1938</ele>
        <time>2018-04-14T08:27:36Z</time>
      </trkpt>
      <trkpt lat="45.99619" lon="6.46797">
        <ele>1937</ele>
        <time>2018-04-14T08:27:37Z</time>
      </trkpt>
      <trkpt lat="45.99614" lon="6.46803">
        <ele>1935</ele>
        <time>2018-04-14T08:27:38Z</time>
      </trkpt>
      <trkpt lat="45.9961" lon="6.46809">
        <ele>1933</ele>
        <time>2018-04-14T08:27:39Z</time>
      </trkpt>
      <trkpt lat="45.99606" lon="6.4682">
        <ele>1929</ele>
        <time>2018-04-14T08:27:40Z</time>
      </trkpt>
      <trkpt lat="45.99601" lon="6.4683">
        <ele>1924</ele>
        <time>2018-04-14T08:27:41Z</time>
      </trkpt>
      <trkpt lat="45.99596" lon="6.46839">
        <ele>1913</ele>
        <time>2018-04-14T08:27:42Z</time>
      </trkpt>
      <trkpt lat="45.99593" lon="6.46845">
        <ele>1913</ele>
        <time>2018-04-14T08:27:43Z</time>
      </trkpt>
      <trkpt lat="45.99592" lon="6.46853">
        <ele>1913</ele>
        <time>2018-04-14T08:27:44Z</time>
      </trkpt>
      <trkpt lat="45.99591" lon="6.46861">
        <ele>1912</ele>
        <time>2018-04-14T08:27:45Z</time>
      </trkpt>
      <trkpt lat="45.9959" lon="6.46868">
        <ele>1911</ele>
        <time>2018-04-14T08:27:46Z</time>
      </trkpt>
      <trkpt lat="45.99588" lon="6.46876">
        <ele>1909</ele>
        <time>2018-04-14T08:27:47Z</time>
      </trkpt>
      <trkpt lat="45.99586" lon="6.46883">
        <ele>1907</ele>
        <time>2018-04-14T08:27:48Z</time>
      </trkpt>
      <trkpt lat="45.99584" lon="6.46891">
        <ele>1903</ele>
        <time>2018-04-14T08:27:49Z</time>
      </trkpt>
      <trkpt lat="45.99582" lon="6.46898">
        <ele>1873</ele>
        <time>2018-04-14T08:27:50Z</time>
      </trkpt>
      <trkpt lat="45.9958" lon="6.46904">
        <ele>1873</ele>
        <time>2018-04-14T08:27:51Z</time>
      </trkpt>
      <trkpt lat="45.99576" lon="6.4691">
        <ele>1873</ele>
        <time>2018-04-14T08:27:52Z</time>
      </trkpt>
      <trkpt lat="45.99571" lon="6.46913">
        <ele>1872</ele>
        <time>2018-04-14T08:27:53Z</time>
      </trkpt>
      <trkpt lat="45.99565" lon="6.46912">
        <ele>1870</ele>
        <time>2018-04-14T08:27:54Z</time>
      </trkpt>
      <trkpt lat="45.99562" lon="6.46908">
        <ele>1869</ele>
        <time>2018-04-14T08:27:55Z</time>
      </trkpt>
      <trkpt lat="45.99559" lon="6.46907">
        <ele>1868</ele>
        <time>2018-04-14T08:27:56Z</time>
      </trkpt>
      <trkpt lat="45.99557" lon="6.46908">
        <ele>1867</ele>
        <time>2018-04-14T08:27:57Z</time>
      </trkpt>
      <trkpt lat="45.99555" lon="6.46913">
        <ele>1866</ele>
        <time>2018-04-14T08:27:58Z</time>
      </trkpt>
      <trkpt lat="45.99552" lon="6.46917">
        <ele>1850</ele>
        <time>2018-04-14T08:27:59Z</time>
      </trkpt>
      <trkpt lat="45.99547" lon="6.46921">
        <ele>1848</ele>
        <time>2018-04-14T08:28:00Z</time>
      </trkpt>
      <trkpt lat="45.99542" lon="6.46922">
        <ele>1845</ele>
        <time>2018-04-14T08:28:01Z</time>
      </trkpt>
      <trkpt lat="45.99537" lon="6.46924">
        <ele>1843</ele>
        <time>2018-04-14T08:28:02Z</time>
      </trkpt>
      <trkpt lat="45.99535" lon="6.46924">
        <ele>1842</ele>
        <time>2018-04-14T08:28:03Z</time>
      </trkpt>
      <trkpt lat="45.99532" lon="6.46927">
        <ele>1840</ele>
        <time>2018-04-14T08:28:04Z</time>
      </trkpt>
      <trkpt lat="45.99528" lon="6.46925">
        <ele>1839</ele>
        <time>2018-04-14T08:28:05Z</time>
      </trkpt>
      <trkpt lat="45.99524" lon="6.46921">
        <ele>1837</ele>
        <time>2018-04-14T08:28:06Z</time>
      </trkpt>
      <trkpt lat="45.99521" lon="6.46917">
        <ele>1836</ele>
        <time>2018-04-14T08:28:07Z</time>
      </trkpt>
      <trkpt lat="45.9952" lon="6.46913">
        <ele>1848</ele>
        <time>2018-04-14T08:28:08Z</time>
      </trkpt>
      <trkpt lat="45.9952" lon="6.46911">
        <ele>1848</ele>
        <time>2018-04-14T08:28:09Z</time>
      </trkpt>
      <trkpt lat="45.99519" lon="6.46912">
        <ele>1847</ele>
        <time>2018-04-14T08:28:17Z</time>
      </trkpt>
      <trkpt lat="45.99521" lon="6.46908">
        <ele>1850</ele>
        <time>2018-04-14T08:28:22Z</time>
      </trkpt>
      <trkpt lat="45.99521" lon="6.46906">
        <ele>1851</ele>
        <time>2018-04-14T08:28:27Z</time>
      </trkpt>
      <trkpt lat="45.99521" lon="6.46907">
        <ele>1850</ele>
        <time>2018-04-14T08:28:33Z</time>
      </trkpt>
      <trkpt lat="45.9952" lon="6.46904">
        <ele>1850</ele>
        <time>2018-04-14T08:28:37Z</time>
      </trkpt>
      <trkpt lat="45.99518" lon="6.46903">
        <ele>1850</ele>
        <time>2018-04-14T08:28:38Z</time>
      </trkpt>
      <trkpt lat="45.99516" lon="6.46902">
        <ele>1849</ele>
        <time>2018-04-14T08:28:39Z</time>
      </trkpt>
      <trkpt lat="45.99513" lon="6.46899">
        <ele>1849</ele>
        <time>2018-04-14T08:28:40Z</time>
      </trkpt>
      <trkpt lat="45.9951" lon="6.46896">
        <ele>1849</ele>
        <time>2018-04-14T08:28:41Z</time>
      </trkpt>
      <trkpt lat="45.99502" lon="6.46885">
        <ele>1853</ele>
        <time>2018-04-14T08:28:46Z</time>
      </trkpt>
      <trkpt lat="45.995" lon="6.46884">
        <ele>1854</ele>
        <time>2018-04-14T08:28:47Z</time>
      </trkpt>
      <trkpt lat="45.99499" lon="6.46879">
        <ele>1826</ele>
        <time>2018-04-14T08:28:49Z</time>
      </trkpt>
      <trkpt lat="45.99498" lon="6.46878">
        <ele>1826</ele>
        <time>2018-04-14T08:28:50Z</time>
      </trkpt>
      <trkpt lat="45.99497" lon="6.4688">
        <ele>1826</ele>
        <time>2018-04-14T08:28:51Z</time>
      </trkpt>
      <trkpt lat="45.99497" lon="6.46884">
        <ele>1825</ele>
        <time>2018-04-14T08:28:52Z</time>
      </trkpt>
      <trkpt lat="45.99498" lon="6.46887">
        <ele>1824</ele>
        <time>2018-04-14T08:28:53Z</time>
      </trkpt>
      <trkpt lat="45.99499" lon="6.46891">
        <ele>1824</ele>
        <time>2018-04-14T08:28:54Z</time>
      </trkpt>
      <trkpt lat="45.99501" lon="6.46909">
        <ele>1836</ele>
        <time>2018-04-14T08:28:58Z</time>
      </trkpt>
      <trkpt lat="45.99498" lon="6.46911">
        <ele>1824</ele>
        <time>2018-04-14T08:28:59Z</time>
      </trkpt>
      <trkpt lat="45.99493" lon="6.46913">
        <ele>1823</ele>
        <time>2018-04-14T08:29:01Z</time>
      </trkpt>
      <trkpt lat="45.99492" lon="6.46919">
        <ele>1816</ele>
        <time>2018-04-14T08:29:02Z</time>
      </trkpt>
      <trkpt lat="45.99489" lon="6.46923">
        <ele>1812</ele>
        <time>2018-04-14T08:29:03Z</time>
      </trkpt>
      <trkpt lat="45.99485" lon="6.46924">
        <ele>1809</ele>
        <time>2018-04-14T08:29:04Z</time>
      </trkpt>
      <trkpt lat="45.99481" lon="6.46927">
        <ele>1806</ele>
        <time>2018-04-14T08:29:05Z</time>
      </trkpt>
      <trkpt lat="45.99479" lon="6.46933">
        <ele>1803</ele>
        <time>2018-04-14T08:29:06Z</time>
      </trkpt>
      <trkpt lat="45.99474" lon="6.46936">
        <ele>1801</ele>
        <time>2018-04-14T08:29:07Z</time>
      </trkpt>
      <trkpt lat="45.99469" lon="6.46936">
        <ele>1799</ele>
        <time>2018-04-14T08:29:08Z</time>
      </trkpt>
      <trkpt lat="45.99465" lon="6.46938">
        <ele>1797</ele>
        <time>2018-04-14T08:29:09Z</time>
      </trkpt>
      <trkpt lat="45.99462" lon="6.46941">
        <ele>1796</ele>
        <time>2018-04-14T08:29:10Z</time>
      </trkpt>
      <trkpt lat="45.99459" lon="6.4694">
        <ele>1795</ele>
        <time>2018-04-14T08:29:11Z</time>
      </trkpt>
      <trkpt lat="45.99455" lon="6.46937">
        <ele>1794</ele>
        <time>2018-04-14T08:29:12Z</time>
      </trkpt>
      <trkpt lat="45.99452" lon="6.46933">
        <ele>1793</ele>
        <time>2018-04-14T08:29:13Z</time>
      </trkpt>
      <trkpt lat="45.99451" lon="6.46928">
        <ele>1793</ele>
        <time>2018-04-14T08:29:14Z</time>
      </trkpt>
      <trkpt lat="45.99449" lon="6.46926">
        <ele>1793</ele>
        <time>2018-04-14T08:29:15Z</time>
      </trkpt>
      <trkpt lat="45.99443" lon="6.4691">
        <ele>1806</ele>
        <time>2018-04-14T08:29:22Z</time>
      </trkpt>
      <trkpt lat="45.99443" lon="6.46908">
        <ele>1807</ele>
        <time>2018-04-14T08:29:23Z</time>
      </trkpt>
      <trkpt lat="45.99443" lon="6.46906">
        <ele>1807</ele>
        <time>2018-04-14T08:29:24Z</time>
      </trkpt>
      <trkpt lat="45.99444" lon="6.46905">
        <ele>1808</ele>
        <time>2018-04-14T08:29:25Z</time>
      </trkpt>
      <trkpt lat="45.99443" lon="6.46904">
        <ele>1808</ele>
        <time>2018-04-14T08:29:26Z</time>
      </trkpt>
      <trkpt lat="45.99442" lon="6.46901">
        <ele>1808</ele>
        <time>2018-04-14T08:29:27Z</time>
      </trkpt>
      <trkpt lat="45.99441" lon="6.46898">
        <ele>1808</ele>
        <time>2018-04-14T08:29:28Z</time>
      </trkpt>
      <trkpt lat="45.99437" lon="6.469">
        <ele>1806</ele>
        <time>2018-04-14T08:29:29Z</time>
      </trkpt>
      <trkpt lat="45.99433" lon="6.46903">
        <ele>1803</ele>
        <time>2018-04-14T08:29:30Z</time>
      </trkpt>
      <trkpt lat="45.9943" lon="6.46907">
        <ele>1800</ele>
        <time>2018-04-14T08:29:31Z</time>
      </trkpt>
      <trkpt lat="45.99426" lon="6.46906">
        <ele>1798</ele>
        <time>2018-04-14T08:29:32Z</time>
      </trkpt>
      <trkpt lat="45.99421" lon="6.46908">
        <ele>1794</ele>
        <time>2018-04-14T08:29:33Z</time>
      </trkpt>
      <trkpt lat="45.99418" lon="6.46913">
        <ele>1788</ele>
        <time>2018-04-14T08:29:34Z</time>
      </trkpt>
      <trkpt lat="45.99416" lon="6.46919">
        <ele>1779</ele>
        <time>2018-04-14T08:29:35Z</time>
      </trkpt>
      <trkpt lat="45.99411" lon="6.46921">
        <ele>1773</ele>
        <time>2018-04-14T08:29:36Z</time>
      </trkpt>
      <trkpt lat="45.99405" lon="6.46924">
        <ele>1767</ele>
        <time>2018-04-14T08:29:37Z</time>
      </trkpt>
      <trkpt lat="45.99399" lon="6.4693">
        <ele>1762</ele>
        <time>2018-04-14T08:29:38Z</time>
      </trkpt>
      <trkpt lat="45.99395" lon="6.46933">
        <ele>1759</ele>
        <time>2018-04-14T08:29:39Z</time>
      </trkpt>
      <trkpt lat="45.9939" lon="6.46935">
        <ele>1757</ele>
        <time>2018-04-14T08:29:40Z</time>
      </trkpt>
      <trkpt lat="45.99384" lon="6.46937">
        <ele>1754</ele>
        <time>2018-04-14T08:29:41Z</time>
      </trkpt>
      <trkpt lat="45.99378" lon="6.46937">
        <ele>1752</ele>
        <time>2018-04-14T08:29:42Z</time>
      </trkpt>
      <trkpt lat="45.99376" lon="6.46931">
        <ele>1752</ele>
        <time>2018-04-14T08:29:43Z</time>
      </trkpt>
      <trkpt lat="45.99374" lon="6.46928">
        <ele>1751</ele>
        <time>2018-04-14T08:29:44Z</time>
      </trkpt>
      <trkpt lat="45.9937" lon="6.46929">
        <ele>1750</ele>
        <time>2018-04-14T08:29:45Z</time>
      </trkpt>
      <trkpt lat="45.99366" lon="6.46933">
        <ele>1748</ele>
        <time>2018-04-14T08:29:46Z</time>
      </trkpt>
      <trkpt lat="45.99362" lon="6.46933">
        <ele>1747</ele>
        <time>2018-04-14T08:29:47Z</time>
      </trkpt>
      <trkpt lat="45.9936" lon="6.46932">
        <ele>1746</ele>
        <time>2018-04-14T08:29:48Z</time>
      </trkpt>
      <trkpt lat="45.99359" lon="6.46935">
        <ele>1746</ele>
        <time>2018-04-14T08:29:49Z</time>
      </trkpt>
      <trkpt lat="45.99357" lon="6.46941">
        <ele>1746</ele>
        <time>2018-04-14T08:29:50Z</time>
      </trkpt>
      <trkpt lat="45.99354" lon="6.46945">
        <ele>1745</ele>
        <time>2018-04-14T08:29:51Z</time>
      </trkpt>
      <trkpt lat="45.99351" lon="6.4695">
        <ele>1744</ele>
        <time>2018-04-14T08:29:52Z</time>
      </trkpt>
      <trkpt lat="45.99347" lon="6.46956">
        <ele>1743</ele>
        <time>2018-04-14T08:29:53Z</time>
      </trkpt>
      <trkpt lat="45.99343" lon="6.46961">
        <ele>1742</ele>
        <time>2018-04-14T08:29:54Z</time>
      </trkpt>
      <trkpt lat="45.99339" lon="6.46967">
        <ele>1740</ele>
        <time>2018-04-14T08:29:55Z</time>
      </trkpt>
      <trkpt lat="45.99335" lon="6.46976">
        <ele>1738</ele>
        <time>2018-04-14T08:29:56Z</time>
      </trkpt>
      <trkpt lat="45.9933" lon="6.46982">
        <ele>1717</ele>
        <time>2018-04-14T08:29:57Z</time>
      </trkpt>
      <trkpt lat="45.99325" lon="6.46988">
        <ele>1718</ele>
        <time>2018-04-14T08:29:58Z</time>
      </trkpt>
      <trkpt lat="45.99322" lon="6.46996">
        <ele>1718</ele>
        <time>2018-04-14T08:29:59Z</time>
      </trkpt>
      <trkpt lat="45.9932" lon="6.47005">
        <ele>1711</ele>
        <time>2018-04-14T08:30:00Z</time>
      </trkpt>
      <trkpt lat="45.99316" lon="6.47012">
        <ele>1707</ele>
        <time>2018-04-14T08:30:01Z</time>
      </trkpt>
      <trkpt lat="45.99312" lon="6.47019">
        <ele>1704</ele>
        <time>2018-04-14T08:30:02Z</time>
      </trkpt>
      <trkpt lat="45.9931" lon="6.47029">
        <ele>1701</ele>
        <time>2018-04-14T08:30:03Z</time>
      </trkpt>
      <trkpt lat="45.99307" lon="6.4705">
        <ele>1697</ele>
        <time>2018-04-14T08:30:05Z</time>
      </trkpt>
      <trkpt lat="45.99303" lon="6.47058">
        <ele>1695</ele>
        <time>2018-04-14T08:30:06Z</time>
      </trkpt>
      <trkpt lat="45.99297" lon="6.47061">
        <ele>1694</ele>
        <time>2018-04-14T08:30:07Z</time>
      </trkpt>
      <trkpt lat="45.99292" lon="6.47061">
        <ele>1694</ele>
        <time>2018-04-14T08:30:08Z</time>
      </trkpt>
      <trkpt lat="45.9929" lon="6.47061">
        <ele>1693</ele>
        <time>2018-04-14T08:30:09Z</time>
      </trkpt>
      <trkpt lat="45.99288" lon="6.47061">
        <ele>1693</ele>
        <time>2018-04-14T08:30:10Z</time>
      </trkpt>
      <trkpt lat="45.99287" lon="6.47062">
        <ele>1693</ele>
        <time>2018-04-14T08:30:11Z</time>
      </trkpt>
      <trkpt lat="45.99289" lon="6.47064">
        <ele>1693</ele>
        <time>2018-04-14T08:30:22Z</time>
      </trkpt>
      <trkpt lat="45.99288" lon="6.47066">
        <ele>1693</ele>
        <time>2018-04-14T08:30:23Z</time>
      </trkpt>
      <trkpt lat="45.99287" lon="6.47068">
        <ele>1692</ele>
        <time>2018-04-14T08:30:24Z</time>
      </trkpt>
      <trkpt lat="45.99285" lon="6.47071">
        <ele>1692</ele>
        <time>2018-04-14T08:30:25Z</time>
      </trkpt>
      <trkpt lat="45.99282" lon="6.47072">
        <ele>1691</ele>
        <time>2018-04-14T08:30:26Z</time>
      </trkpt>
      <trkpt lat="45.99279" lon="6.47075">
        <ele>1690</ele>
        <time>2018-04-14T08:30:27Z</time>
      </trkpt>
      <trkpt lat="45.99276" lon="6.4708">
        <ele>1689</ele>
        <time>2018-04-14T08:30:28Z</time>
      </trkpt>
      <trkpt lat="45.99274" lon="6.47087">
        <ele>1678</ele>
        <time>2018-04-14T08:30:29Z</time>
      </trkpt>
      <trkpt lat="45.99272" lon="6.47093">
        <ele>1677</ele>
        <time>2018-04-14T08:30:30Z</time>
      </trkpt>
      <trkpt lat="45.99269" lon="6.47099">
        <ele>1677</ele>
        <time>2018-04-14T08:30:31Z</time>
      </trkpt>
      <trkpt lat="45.99268" lon="6.47106">
        <ele>1676</ele>
        <time>2018-04-14T08:30:32Z</time>
      </trkpt>
      <trkpt lat="45.9927" lon="6.47112">
        <ele>1676</ele>
        <time>2018-04-14T08:30:33Z</time>
      </trkpt>
      <trkpt lat="45.99269" lon="6.47116">
        <ele>1675</ele>
        <time>2018-04-14T08:30:34Z</time>
      </trkpt>
      <trkpt lat="45.99267" lon="6.47119">
        <ele>1675</ele>
        <time>2018-04-14T08:30:35Z</time>
      </trkpt>
      <trkpt lat="45.99265" lon="6.47121">
        <ele>1674</ele>
        <time>2018-04-14T08:30:36Z</time>
      </trkpt>
      <trkpt lat="45.99266" lon="6.47124">
        <ele>1674</ele>
        <time>2018-04-14T08:30:37Z</time>
      </trkpt>
      <trkpt lat="45.99267" lon="6.47128">
        <ele>1673</ele>
        <time>2018-04-14T08:30:38Z</time>
      </trkpt>
      <trkpt lat="45.99267" lon="6.47132">
        <ele>1673</ele>
        <time>2018-04-14T08:30:39Z</time>
      </trkpt>
      <trkpt lat="45.99267" lon="6.47138">
        <ele>1672</ele>
        <time>2018-04-14T08:30:40Z</time>
      </trkpt>
      <trkpt lat="45.99267" lon="6.47148">
        <ele>1670</ele>
        <time>2018-04-14T08:30:41Z</time>
      </trkpt>
      <trkpt lat="45.9927" lon="6.47167">
        <ele>1662</ele>
        <time>2018-04-14T08:30:43Z</time>
      </trkpt>
      <trkpt lat="45.99273" lon="6.47183">
        <ele>1662</ele>
        <time>2018-04-14T08:30:45Z</time>
      </trkpt>
      <trkpt lat="45.99274" lon="6.4719">
        <ele>1662</ele>
        <time>2018-04-14T08:30:46Z</time>
      </trkpt>
      <trkpt lat="45.99274" lon="6.47197">
        <ele>1662</ele>
        <time>2018-04-14T08:30:47Z</time>
      </trkpt>
      <trkpt lat="45.99274" lon="6.47214">
        <ele>1661</ele>
        <time>2018-04-14T08:30:51Z</time>
      </trkpt>
      <trkpt lat="45.99273" lon="6.47233">
        <ele>1660</ele>
        <time>2018-04-14T08:30:57Z</time>
      </trkpt>
      <trkpt lat="45.99269" lon="6.47247">
        <ele>1658</ele>
        <time>2018-04-14T08:31:00Z</time>
      </trkpt>
      <trkpt lat="45.99267" lon="6.47252">
        <ele>1656</ele>
        <time>2018-04-14T08:31:01Z</time>
      </trkpt>
      <trkpt lat="45.99264" lon="6.47254">
        <ele>1655</ele>
        <time>2018-04-14T08:31:02Z</time>
      </trkpt>
      <trkpt lat="45.99261" lon="6.47255">
        <ele>1655</ele>
        <time>2018-04-14T08:31:03Z</time>
      </trkpt>
      <trkpt lat="45.99259" lon="6.47256">
        <ele>1655</ele>
        <time>2018-04-14T08:31:04Z</time>
      </trkpt>
      <trkpt lat="45.99257" lon="6.47257">
        <ele>1654</ele>
        <time>2018-04-14T08:31:05Z</time>
      </trkpt>
      <trkpt lat="45.99239" lon="6.47268">
        <ele>1641</ele>
        <time>2018-04-14T08:31:12Z</time>
      </trkpt>
      <trkpt lat="45.99237" lon="6.47272">
        <ele>1640</ele>
        <time>2018-04-14T08:31:13Z</time>
      </trkpt>
      <trkpt lat="45.99236" lon="6.47277">
        <ele>1639</ele>
        <time>2018-04-14T08:31:14Z</time>
      </trkpt>
      <trkpt lat="45.9923" lon="6.47301">
        <ele>1637</ele>
        <time>2018-04-14T08:31:17Z</time>
      </trkpt>
      <trkpt lat="45.99224" lon="6.47322">
        <ele>1637</ele>
        <time>2018-04-14T08:31:20Z</time>
      </trkpt>
      <trkpt lat="45.99219" lon="6.47356">
        <ele>1630</ele>
        <time>2018-04-14T08:31:26Z</time>
      </trkpt>
      <trkpt lat="45.99219" lon="6.4737">
        <ele>1629</ele>
        <time>2018-04-14T08:31:28Z</time>
      </trkpt>
      <trkpt lat="45.99219" lon="6.47376">
        <ele>1629</ele>
        <time>2018-04-14T08:31:29Z</time>
      </trkpt>
      <trkpt lat="45.99219" lon="6.47382">
        <ele>1629</ele>
        <time>2018-04-14T08:31:30Z</time>
      </trkpt>
      <trkpt lat="45.99217" lon="6.47388">
        <ele>1628</ele>
        <time>2018-04-14T08:31:31Z</time>
      </trkpt>
      <trkpt lat="45.99216" lon="6.47396">
        <ele>1628</ele>
        <time>2018-04-14T08:31:32Z</time>
      </trkpt>
      <trkpt lat="45.99215" lon="6.47403">
        <ele>1628</ele>
        <time>2018-04-14T08:31:33Z</time>
      </trkpt>
      <trkpt lat="45.99217" lon="6.4741">
        <ele>1628</ele>
        <time>2018-04-14T08:31:34Z</time>
      </trkpt>
      <trkpt lat="45.99216" lon="6.47416">
        <ele>1628</ele>
        <time>2018-04-14T08:31:35Z</time>
      </trkpt>
      <trkpt lat="45.99216" lon="6.47422">
        <ele>1624</ele>
        <time>2018-04-14T08:31:36Z</time>
      </trkpt>
      <trkpt lat="45.99217" lon="6.47427">
        <ele>1624</ele>
        <time>2018-04-14T08:31:37Z</time>
      </trkpt>
      <trkpt lat="45.9922" lon="6.47457">
        <ele>1623</ele>
        <time>2018-04-14T08:31:41Z</time>
      </trkpt>
      <trkpt lat="45.99223" lon="6.47465">
        <ele>1623</ele>
        <time>2018-04-14T08:31:42Z</time>
      </trkpt>
      <trkpt lat="45.99226" lon="6.47478">
        <ele>1623</ele>
        <time>2018-04-14T08:31:44Z</time>
      </trkpt>
      <trkpt lat="45.99227" lon="6.47484">
        <ele>1624</ele>
        <time>2018-04-14T08:31:45Z</time>
      </trkpt>
      <trkpt lat="45.99229" lon="6.47504">
        <ele>1623</ele>
        <time>2018-04-14T08:31:49Z</time>
      </trkpt>
      <trkpt lat="45.99227" lon="6.47511">
        <ele>1622</ele>
        <time>2018-04-14T08:31:50Z</time>
      </trkpt>
      <trkpt lat="45.99225" lon="6.47518">
        <ele>1621</ele>
        <time>2018-04-14T08:31:51Z</time>
      </trkpt>
      <trkpt lat="45.99222" lon="6.47527">
        <ele>1620</ele>
        <time>2018-04-14T08:31:52Z</time>
      </trkpt>
      <trkpt lat="45.99218" lon="6.47536">
        <ele>1619</ele>
        <time>2018-04-14T08:31:53Z</time>
      </trkpt>
      <trkpt lat="45.99211" lon="6.47544">
        <ele>1618</ele>
        <time>2018-04-14T08:31:54Z</time>
      </trkpt>
      <trkpt lat="45.99206" lon="6.47547">
        <ele>1618</ele>
        <time>2018-04-14T08:31:55Z</time>
      </trkpt>
      <trkpt lat="45.99202" lon="6.47547">
        <ele>1617</ele>
        <time>2018-04-14T08:31:56Z</time>
      </trkpt>
      <trkpt lat="45.992" lon="6.47546">
        <ele>1617</ele>
        <time>2018-04-14T08:31:57Z</time>
      </trkpt>
      <trkpt lat="45.99198" lon="6.47546">
        <ele>1617</ele>
        <time>2018-04-14T08:31:58Z</time>
      </trkpt>
      <trkpt lat="45.99199" lon="6.47545">
        <ele>1617</ele>
        <time>2018-04-14T08:31:59Z</time>
      </trkpt>
      <trkpt lat="45.99201" lon="6.47542">
        <ele>1617</ele>
        <time>2018-04-14T08:32:02Z</time>
      </trkpt>
      <trkpt lat="45.99197" lon="6.4753">
        <ele>1616</ele>
        <time>2018-04-14T08:32:08Z</time>
      </trkpt>
      <trkpt lat="45.99167" lon="6.47519">
        <ele>1610</ele>
        <time>2018-04-14T08:32:20Z</time>
      </trkpt>
      <trkpt lat="45.99161" lon="6.47517">
        <ele>1608</ele>
        <time>2018-04-14T08:32:21Z</time>
      </trkpt>
      <trkpt lat="45.99156" lon="6.47514">
        <ele>1608</ele>
        <time>2018-04-14T08:32:22Z</time>
      </trkpt>
      <trkpt lat="45.99118" lon="6.47489">
        <ele>1603</ele>
        <time>2018-04-14T08:32:28Z</time>
      </trkpt>
      <trkpt lat="45.99093" lon="6.47463">
        <ele>1602</ele>
        <time>2018-04-14T08:32:32Z</time>
      </trkpt>
      <trkpt lat="45.99069" lon="6.47433">
        <ele>1596</ele>
        <time>2018-04-14T08:32:36Z</time>
      </trkpt>
      <trkpt lat="45.99064" lon="6.47427">
        <ele>1595</ele>
        <time>2018-04-14T08:32:37Z</time>
      </trkpt>
      <trkpt lat="45.99058" lon="6.47423">
        <ele>1595</ele>
        <time>2018-04-14T08:32:38Z</time>
      </trkpt>
      <trkpt lat="45.99054" lon="6.47419">
        <ele>1595</ele>
        <time>2018-04-14T08:32:39Z</time>
      </trkpt>
      <trkpt lat="45.99049" lon="6.47415">
        <ele>1584</ele>
        <time>2018-04-14T08:32:40Z</time>
      </trkpt>
      <trkpt lat="45.99045" lon="6.4741">
        <ele>1583</ele>
        <time>2018-04-14T08:32:41Z</time>
      </trkpt>
      <trkpt lat="45.9904" lon="6.47405">
        <ele>1583</ele>
        <time>2018-04-14T08:32:42Z</time>
      </trkpt>
      <trkpt lat="45.99035" lon="6.47401">
        <ele>1583</ele>
        <time>2018-04-14T08:32:43Z</time>
      </trkpt>
      <trkpt lat="45.99024" lon="6.47389">
        <ele>1581</ele>
        <time>2018-04-14T08:32:46Z</time>
      </trkpt>
      <trkpt lat="45.9902" lon="6.47385">
        <ele>1581</ele>
        <time>2018-04-14T08:32:47Z</time>
      </trkpt>
      <trkpt lat="45.99016" lon="6.47382">
        <ele>1580</ele>
        <time>2018-04-14T08:32:48Z</time>
      </trkpt>
      <trkpt lat="45.99012" lon="6.47379">
        <ele>1580</ele>
        <time>2018-04-14T08:32:49Z</time>
      </trkpt>
      <trkpt lat="45.99008" lon="6.47378">
        <ele>1580</ele>
        <time>2018-04-14T08:32:50Z</time>
      </trkpt>
      <trkpt lat="45.99003" lon="6.47377">
        <ele>1580</ele>
        <time>2018-04-14T08:32:51Z</time>
      </trkpt>
      <trkpt lat="45.98999" lon="6.47377">
        <ele>1576</ele>
        <time>2018-04-14T08:32:52Z</time>
      </trkpt>
      <trkpt lat="45.98995" lon="6.47378">
        <ele>1576</ele>
        <time>2018-04-14T08:32:53Z</time>
      </trkpt>
      <trkpt lat="45.9899" lon="6.47379">
        <ele>1576</ele>
        <time>2018-04-14T08:32:54Z</time>
      </trkpt>
      <trkpt lat="45.98963" lon="6.47385">
        <ele>1576</ele>
        <time>2018-04-14T08:33:01Z</time>
      </trkpt>
      <trkpt lat="45.9894" lon="6.47377">
        <ele>1574</ele>
        <time>2018-04-14T08:33:06Z</time>
      </trkpt>
      <trkpt lat="45.98915" lon="6.47368">
        <ele>1570</ele>
        <time>2018-04-14T08:33:10Z</time>
      </trkpt>
      <trkpt lat="45.9891" lon="6.47366">
        <ele>1570</ele>
        <time>2018-04-14T08:33:11Z</time>
      </trkpt>
      <trkpt lat="45.98906" lon="6.47365">
        <ele>1570</ele>
        <time>2018-04-14T08:33:12Z</time>
      </trkpt>
      <trkpt lat="45.98902" lon="6.47363">
        <ele>1569</ele>
        <time>2018-04-14T08:33:13Z</time>
      </trkpt>
      <trkpt lat="45.989" lon="6.47357">
        <ele>1569</ele>
        <time>2018-04-14T08:33:14Z</time>
      </trkpt>
      <trkpt lat="45.989" lon="6.4735">
        <ele>1568</ele>
        <time>2018-04-14T08:33:15Z</time>
      </trkpt>
      <trkpt lat="45.98901" lon="6.47345">
        <ele>1567</ele>
        <time>2018-04-14T08:33:16Z</time>
      </trkpt>
      <trkpt lat="45.989" lon="6.47339">
        <ele>1567</ele>
        <time>2018-04-14T08:33:17Z</time>
      </trkpt>
      <trkpt lat="45.98898" lon="6.47333">
        <ele>1557</ele>
        <time>2018-04-14T08:33:18Z</time>
      </trkpt>
      <trkpt lat="45.98897" lon="6.47327">
        <ele>1556</ele>
        <time>2018-04-14T08:33:19Z</time>
      </trkpt>
      <trkpt lat="45.98895" lon="6.47319">
        <ele>1555</ele>
        <time>2018-04-14T08:33:20Z</time>
      </trkpt>
      <trkpt lat="45.98891" lon="6.47313">
        <ele>1553</ele>
        <time>2018-04-14T08:33:21Z</time>
      </trkpt>
      <trkpt lat="45.98886" lon="6.4731">
        <ele>1552</ele>
        <time>2018-04-14T08:33:22Z</time>
      </trkpt>
      <trkpt lat="45.98884" lon="6.47304">
        <ele>1551</ele>
        <time>2018-04-14T08:33:23Z</time>
      </trkpt>
      <trkpt lat="45.98884" lon="6.47298">
        <ele>1550</ele>
        <time>2018-04-14T08:33:24Z</time>
      </trkpt>
      <trkpt lat="45.98883" lon="6.47291">
        <ele>1550</ele>
        <time>2018-04-14T08:33:25Z</time>
      </trkpt>
      <trkpt lat="45.9888" lon="6.47286">
        <ele>1549</ele>
        <time>2018-04-14T08:33:26Z</time>
      </trkpt>
      <trkpt lat="45.98877" lon="6.4728">
        <ele>1548</ele>
        <time>2018-04-14T08:33:27Z</time>
      </trkpt>
      <trkpt lat="45.98878" lon="6.47271">
        <ele>1547</ele>
        <time>2018-04-14T08:33:28Z</time>
      </trkpt>
      <trkpt lat="45.98879" lon="6.47263">
        <ele>1547</ele>
        <time>2018-04-14T08:33:29Z</time>
      </trkpt>
      <trkpt lat="45.98879" lon="6.47256">
        <ele>1546</ele>
        <time>2018-04-14T08:33:30Z</time>
      </trkpt>
      <trkpt lat="45.98875" lon="6.4725">
        <ele>1546</ele>
        <time>2018-04-14T08:33:31Z</time>
      </trkpt>
      <trkpt lat="45.98874" lon="6.47242">
        <ele>1535</ele>
        <time>2018-04-14T08:33:32Z</time>
      </trkpt>
      <trkpt lat="45.98872" lon="6.47235">
        <ele>1535</ele>
        <time>2018-04-14T08:33:33Z</time>
      </trkpt>
      <trkpt lat="45.98869" lon="6.47229">
        <ele>1534</ele>
        <time>2018-04-14T08:33:34Z</time>
      </trkpt>
      <trkpt lat="45.98864" lon="6.47225">
        <ele>1534</ele>
        <time>2018-04-14T08:33:35Z</time>
      </trkpt>
      <trkpt lat="45.9886" lon="6.4722">
        <ele>1533</ele>
        <time>2018-04-14T08:33:36Z</time>
      </trkpt>
      <trkpt lat="45.98857" lon="6.47213">
        <ele>1532</ele>
        <time>2018-04-14T08:33:37Z</time>
      </trkpt>
      <trkpt lat="45.98853" lon="6.47207">
        <ele>1532</ele>
        <time>2018-04-14T08:33:38Z</time>
      </trkpt>
      <trkpt lat="45.98848" lon="6.47205">
        <ele>1531</ele>
        <time>2018-04-14T08:33:39Z</time>
      </trkpt>
      <trkpt lat="45.98844" lon="6.47204">
        <ele>1531</ele>
        <time>2018-04-14T08:33:40Z</time>
      </trkpt>
      <trkpt lat="45.98842" lon="6.47201">
        <ele>1531</ele>
        <time>2018-04-14T08:33:41Z</time>
      </trkpt>
      <trkpt lat="45.9884" lon="6.47196">
        <ele>1530</ele>
        <time>2018-04-14T08:33:42Z</time>
      </trkpt>
      <trkpt lat="45.98838" lon="6.47192">
        <ele>1529</ele>
        <time>2018-04-14T08:33:43Z</time>
      </trkpt>
      <trkpt lat="45.98834" lon="6.47191">
        <ele>1529</ele>
        <time>2018-04-14T08:33:44Z</time>
      </trkpt>
      <trkpt lat="45.9883" lon="6.47194">
        <ele>1529</ele>
        <time>2018-04-14T08:33:45Z</time>
      </trkpt>
      <trkpt lat="45.98826" lon="6.47198">
        <ele>1529</ele>
        <time>2018-04-14T08:33:46Z</time>
      </trkpt>
      <trkpt lat="45.98824" lon="6.47202">
        <ele>1530</ele>
        <time>2018-04-14T08:33:47Z</time>
      </trkpt>
      <trkpt lat="45.98822" lon="6.47206">
        <ele>1531</ele>
        <time>2018-04-14T08:33:48Z</time>
      </trkpt>
      <trkpt lat="45.9882" lon="6.47209">
        <ele>1531</ele>
        <time>2018-04-14T08:33:49Z</time>
      </trkpt>
      <trkpt lat="45.98817" lon="6.47209">
        <ele>1531</ele>
        <time>2018-04-14T08:33:50Z</time>
      </trkpt>
      <trkpt lat="45.98814" lon="6.47208">
        <ele>1531</ele>
        <time>2018-04-14T08:33:51Z</time>
      </trkpt>
      <trkpt lat="45.98814" lon="6.47205">
        <ele>1531</ele>
        <time>2018-04-14T08:33:52Z</time>
      </trkpt>
      <trkpt lat="45.98814" lon="6.47201">
        <ele>1530</ele>
        <time>2018-04-14T08:33:53Z</time>
      </trkpt>
      <trkpt lat="45.98814" lon="6.47198">
        <ele>1530</ele>
        <time>2018-04-14T08:33:54Z</time>
      </trkpt>
      <trkpt lat="45.98814" lon="6.47194">
        <ele>1530</ele>
        <time>2018-04-14T08:33:55Z</time>
      </trkpt>
      <trkpt lat="45.98816" lon="6.47179">
        <ele>1528</ele>
        <time>2018-04-14T08:33:58Z</time>
      </trkpt>
      <trkpt lat="45.98817" lon="6.47174">
        <ele>1527</ele>
        <time>2018-04-14T08:33:59Z</time>
      </trkpt>
      <trkpt lat="45.98818" lon="6.47171">
        <ele>1527</ele>
        <time>2018-04-14T08:34:00Z</time>
      </trkpt>
      <trkpt lat="45.98818" lon="6.4717">
        <ele>1527</ele>
        <time>2018-04-14T08:34:07Z</time>
      </trkpt>
      <trkpt lat="45.98815" lon="6.47167">
        <ele>1527</ele>
        <time>2018-04-14T08:34:12Z</time>
      </trkpt>
      <trkpt lat="45.98813" lon="6.47164">
        <ele>1522</ele>
        <time>2018-04-14T08:34:13Z</time>
      </trkpt>
      <trkpt lat="45.9881" lon="6.47158">
        <ele>1522</ele>
        <time>2018-04-14T08:34:14Z</time>
      </trkpt>
      <trkpt lat="45.98808" lon="6.4715">
        <ele>1521</ele>
        <time>2018-04-14T08:34:15Z</time>
      </trkpt>
      <trkpt lat="45.98806" lon="6.47141">
        <ele>1521</ele>
        <time>2018-04-14T08:34:16Z</time>
      </trkpt>
      <trkpt lat="45.98805" lon="6.47131">
        <ele>1520</ele>
        <time>2018-04-14T08:34:17Z</time>
      </trkpt>
      <trkpt lat="45.98804" lon="6.47121">
        <ele>1519</ele>
        <time>2018-04-14T08:34:18Z</time>
      </trkpt>
      <trkpt lat="45.98797" lon="6.47078">
        <ele>1510</ele>
        <time>2018-04-14T08:34:22Z</time>
      </trkpt>
      <trkpt lat="45.98794" lon="6.47069">
        <ele>1510</ele>
        <time>2018-04-14T08:34:23Z</time>
      </trkpt>
      <trkpt lat="45.9879" lon="6.4706">
        <ele>1510</ele>
        <time>2018-04-14T08:34:24Z</time>
      </trkpt>
      <trkpt lat="45.98771" lon="6.47025">
        <ele>1508</ele>
        <time>2018-04-14T08:34:28Z</time>
      </trkpt>
      <trkpt lat="45.9875" lon="6.46994">
        <ele>1505</ele>
        <time>2018-04-14T08:34:32Z</time>
      </trkpt>
      <trkpt lat="45.98722" lon="6.46956">
        <ele>1509</ele>
        <time>2018-04-14T08:34:37Z</time>
      </trkpt>
      <trkpt lat="45.98697" lon="6.46918">
        <ele>1509</ele>
        <time>2018-04-14T08:34:43Z</time>
      </trkpt>
      <trkpt lat="45.9869" lon="6.46903">
        <ele>1499</ele>
        <time>2018-04-14T08:34:45Z</time>
      </trkpt>
      <trkpt lat="45.98687" lon="6.46895">
        <ele>1499</ele>
        <time>2018-04-14T08:34:46Z</time>
      </trkpt>
      <trkpt lat="45.9868" lon="6.46876">
        <ele>1496</ele>
        <time>2018-04-14T08:34:48Z</time>
      </trkpt>
      <trkpt lat="45.98661" lon="6.46829">
        <ele>1492</ele>
        <time>2018-04-14T08:34:53Z</time>
      </trkpt>
      <trkpt lat="45.9865" lon="6.46799">
        <ele>1493</ele>
        <time>2018-04-14T08:34:56Z</time>
      </trkpt>
      <trkpt lat="45.98646" lon="6.4679">
        <ele>1493</ele>
        <time>2018-04-14T08:34:57Z</time>
      </trkpt>
      <trkpt lat="45.98641" lon="6.46783">
        <ele>1492</ele>
        <time>2018-04-14T08:34:58Z</time>
      </trkpt>
      <trkpt lat="45.98632" lon="6.46764">
        <ele>1492</ele>
        <time>2018-04-14T08:35:01Z</time>
      </trkpt>
      <trkpt lat="45.98599" lon="6.46715">
        <ele>1483</ele>
        <time>2018-04-14T08:35:17Z</time>
      </trkpt>
      <trkpt lat="45.98587" lon="6.4669">
        <ele>1481</ele>
        <time>2018-04-14T08:35:21Z</time>
      </trkpt>
      <trkpt lat="45.98579" lon="6.46679">
        <ele>1487</ele>
        <time>2018-04-14T08:35:23Z</time>
      </trkpt>
      <trkpt lat="45.98548" lon="6.46642">
        <ele>1475</ele>
        <time>2018-04-14T08:35:29Z</time>
      </trkpt>
      <trkpt lat="45.98516" lon="6.46614">
        <ele>1473</ele>
        <time>2018-04-14T08:35:34Z</time>
      </trkpt>
      <trkpt lat="45.98495" lon="6.46599">
        <ele>1473</ele>
        <time>2018-04-14T08:35:37Z</time>
      </trkpt>
      <trkpt lat="45.9848" lon="6.46592">
        <ele>1473</ele>
        <time>2018-04-14T08:35:39Z</time>
      </trkpt>
      <trkpt lat="45.98467" lon="6.46587">
        <ele>1474</ele>
        <time>2018-04-14T08:35:41Z</time>
      </trkpt>
      <trkpt lat="45.98439" lon="6.46575">
        <ele>1461</ele>
        <time>2018-04-14T08:35:45Z</time>
      </trkpt>
      <trkpt lat="45.98396" lon="6.4656">
        <ele>1461</ele>
        <time>2018-04-14T08:35:51Z</time>
      </trkpt>
      <trkpt lat="45.98355" lon="6.46551">
        <ele>1461</ele>
        <time>2018-04-14T08:35:57Z</time>
      </trkpt>
      <trkpt lat="45.98349" lon="6.46549">
        <ele>1461</ele>
        <time>2018-04-14T08:35:58Z</time>
      </trkpt>
      <trkpt lat="45.98343" lon="6.46547">
        <ele>1461</ele>
        <time>2018-04-14T08:35:59Z</time>
      </trkpt>
      <trkpt lat="45.98337" lon="6.46544">
        <ele>1460</ele>
        <time>2018-04-14T08:36:00Z</time>
      </trkpt>
      <trkpt lat="45.9829" lon="6.4653">
        <ele>1455</ele>
        <time>2018-04-14T08:36:08Z</time>
      </trkpt>
      <trkpt lat="45.98285" lon="6.46529">
        <ele>1454</ele>
        <time>2018-04-14T08:36:09Z</time>
      </trkpt>
      <trkpt lat="45.98258" lon="6.46532">
        <ele>1453</ele>
        <time>2018-04-14T08:36:14Z</time>
      </trkpt>
      <trkpt lat="45.98231" lon="6.46542">
        <ele>1448</ele>
        <time>2018-04-14T08:36:19Z</time>
      </trkpt>
      <trkpt lat="45.98193" lon="6.46553">
        <ele>1447</ele>
        <time>2018-04-14T08:36:30Z</time>
      </trkpt>
      <trkpt lat="45.9816" lon="6.46559">
        <ele>1439</ele>
        <time>2018-04-14T08:36:36Z</time>
      </trkpt>
      <trkpt lat="45.98149" lon="6.4656">
        <ele>1438</ele>
        <time>2018-04-14T08:36:38Z</time>
      </trkpt>
      <trkpt lat="45.98144" lon="6.46562">
        <ele>1438</ele>
        <time>2018-04-14T08:36:39Z</time>
      </trkpt>
      <trkpt lat="45.98112" lon="6.46574">
        <ele>1435</ele>
        <time>2018-04-14T08:36:45Z</time>
      </trkpt>
      <trkpt lat="45.98101" lon="6.46574">
        <ele>1434</ele>
        <time>2018-04-14T08:36:47Z</time>
      </trkpt>
      <trkpt lat="45.98096" lon="6.46576">
        <ele>1434</ele>
        <time>2018-04-14T08:36:48Z</time>
      </trkpt>
      <trkpt lat="45.98087" lon="6.4658">
        <ele>1435</ele>
        <time>2018-04-14T08:36:50Z</time>
      </trkpt>
      <trkpt lat="45.98082" lon="6.46582">
        <ele>1434</ele>
        <time>2018-04-14T08:36:51Z</time>
      </trkpt>
      <trkpt lat="45.98064" lon="6.46586">
        <ele>1436</ele>
        <time>2018-04-14T08:36:55Z</time>
      </trkpt>
      <trkpt lat="45.98056" lon="6.46588">
        <ele>1436</ele>
        <time>2018-04-14T08:36:57Z</time>
      </trkpt>
      <trkpt lat="45.98051" lon="6.46589">
        <ele>1436</ele>
        <time>2018-04-14T08:36:58Z</time>
      </trkpt>
      <trkpt lat="45.98047" lon="6.46591">
        <ele>1435</ele>
        <time>2018-04-14T08:36:59Z</time>
      </trkpt>
      <trkpt lat="45.98027" lon="6.466">
        <ele>1433</ele>
        <time>2018-04-14T08:37:04Z</time>
      </trkpt>
      <trkpt lat="45.98019" lon="6.46605">
        <ele>1433</ele>
        <time>2018-04-14T08:37:06Z</time>
      </trkpt>
      <trkpt lat="45.98016" lon="6.46608">
        <ele>1433</ele>
        <time>2018-04-14T08:37:07Z</time>
      </trkpt>
      <trkpt lat="45.97983" lon="6.46637">
        <ele>1423</ele>
        <time>2018-04-14T08:37:17Z</time>
      </trkpt>
      <trkpt lat="45.97969" lon="6.46651">
        <ele>1423</ele>
        <time>2018-04-14T08:37:21Z</time>
      </trkpt>
      <trkpt lat="45.97935" lon="6.46678">
        <ele>1425</ele>
        <time>2018-04-14T08:37:29Z</time>
      </trkpt>
      <trkpt lat="45.97931" lon="6.46682">
        <ele>1425</ele>
        <time>2018-04-14T08:37:30Z</time>
      </trkpt>
      <trkpt lat="45.97919" lon="6.46693">
        <ele>1426</ele>
        <time>2018-04-14T08:37:33Z</time>
      </trkpt>
      <trkpt lat="45.97916" lon="6.46697">
        <ele>1410</ele>
        <time>2018-04-14T08:37:34Z</time>
      </trkpt>
      <trkpt lat="45.97898" lon="6.46719">
        <ele>1410</ele>
        <time>2018-04-14T08:37:40Z</time>
      </trkpt>
      <trkpt lat="45.97875" lon="6.46767">
        <ele>1414</ele>
        <time>2018-04-14T08:37:52Z</time>
      </trkpt>
      <trkpt lat="45.97869" lon="6.46782">
        <ele>1414</ele>
        <time>2018-04-14T08:37:56Z</time>
      </trkpt>
      <trkpt lat="45.97844" lon="6.46842">
        <ele>1416</ele>
        <time>2018-04-14T08:38:12Z</time>
      </trkpt>
      <trkpt lat="45.97808" lon="6.46867">
        <ele>1407</ele>
        <time>2018-04-14T08:38:25Z</time>
      </trkpt>
      <trkpt lat="45.97798" lon="6.46871">
        <ele>1407</ele>
        <time>2018-04-14T08:38:29Z</time>
      </trkpt>
      <trkpt lat="45.97789" lon="6.46875">
        <ele>1407</ele>
        <time>2018-04-14T08:38:33Z</time>
      </trkpt>
      <trkpt lat="45.97764" lon="6.46886">
        <ele>1406</ele>
        <time>2018-04-14T08:38:47Z</time>
      </trkpt>
      <trkpt lat="45.97763" lon="6.46887">
        <ele>1406</ele>
        <time>2018-04-14T08:38:48Z</time>
      </trkpt>
      <trkpt lat="45.97762" lon="6.46887">
        <ele>1406</ele>
        <time>2018-04-14T08:38:49Z</time>
      </trkpt>
      <trkpt lat="45.97761" lon="6.46893">
        <ele>1406</ele>
        <time>2018-04-14T08:38:58Z</time>
      </trkpt>
      <trkpt lat="45.97762" lon="6.46893">
        <ele>1406</ele>
        <time>2018-04-14T08:38:59Z</time>
      </trkpt>
      <trkpt lat="45.97763" lon="6.46894">
        <ele>1406</ele>
        <time>2018-04-14T08:39:01Z</time>
      </trkpt>
      <trkpt lat="45.97762" lon="6.46896">
        <ele>1406</ele>
        <time>2018-04-14T08:39:05Z</time>
      </trkpt>
      <trkpt lat="45.97758" lon="6.46901">
        <ele>1406</ele>
        <time>2018-04-14T08:39:19Z</time>
      </trkpt>
      <trkpt lat="45.9776" lon="6.46895">
        <ele>1406</ele>
        <time>2018-04-14T08:39:34Z</time>
      </trkpt>
      <trkpt lat="45.97759" lon="6.46889">
        <ele>1406</ele>
        <time>2018-04-14T08:39:44Z</time>
      </trkpt>
      <trkpt lat="45.97757" lon="6.46888">
        <ele>1406</ele>
        <time>2018-04-14T08:40:06Z</time>
      </trkpt>
      <trkpt lat="45.97757" lon="6.46889">
        <ele>1406</ele>
        <time>2018-04-14T08:40:09Z</time>
      </trkpt>
      <trkpt lat="45.97757" lon="6.4689">
        <ele>1406</ele>
        <time>2018-04-14T08:40:12Z</time>
      </trkpt>
      <trkpt lat="45.97757" lon="6.46892">
        <ele>1406</ele>
        <time>2018-04-14T08:40:14Z</time>
      </trkpt>
      <trkpt lat="45.97757" lon="6.46894">
        <ele>1406</ele>
        <time>2018-04-14T08:40:15Z</time>
      </trkpt>
      <trkpt lat="45.97756" lon="6.46895">
        <ele>1406</ele>
        <time>2018-04-14T08:40:16Z</time>
      </trkpt>
      <trkpt lat="45.97756" lon="6.46896">
        <ele>1406</ele>
        <time>2018-04-14T08:40:17Z</time>
      </trkpt>
      <trkpt lat="45.97754" lon="6.46898">
        <ele>1406</ele>
        <time>2018-04-14T08:40:20Z</time>
      </trkpt>
      <trkpt lat="45.97751" lon="6.469">
        <ele>1406</ele>
        <time>2018-04-14T08:40:27Z</time>
      </trkpt>
      <trkpt lat="45.97752" lon="6.469">
        <ele>1406</ele>
        <time>2018-04-14T08:40:29Z</time>
      </trkpt>
      <trkpt lat="45.97754" lon="6.46898">
        <ele>1406</ele>
        <time>2018-04-14T08:40:32Z</time>
      </trkpt>
      <trkpt lat="45.97757" lon="6.46895">
        <ele>1406</ele>
        <time>2018-04-14T08:40:39Z</time>
      </trkpt>
      <trkpt lat="45.97758" lon="6.46897">
        <ele>1406</ele>
        <time>2018-04-14T08:40:42Z</time>
      </trkpt>
      <trkpt lat="45.97758" lon="6.46899">
        <ele>1406</ele>
        <time>2018-04-14T08:40:43Z</time>
      </trkpt>
      <trkpt lat="45.97759" lon="6.46903">
        <ele>1406</ele>
        <time>2018-04-14T08:40:49Z</time>
      </trkpt>
      <trkpt lat="45.97759" lon="6.46902">
        <ele>1406</ele>
        <time>2018-04-14T08:40:55Z</time>
      </trkpt>
      <trkpt lat="45.97759" lon="6.469">
        <ele>1406</ele>
        <time>2018-04-14T08:41:08Z</time>
      </trkpt>
      <trkpt lat="45.97759" lon="6.46898">
        <ele>1406</ele>
        <time>2018-04-14T08:41:09Z</time>
      </trkpt>
      <trkpt lat="45.97754" lon="6.46896">
        <ele>1406</ele>
        <time>2018-04-14T08:41:23Z</time>
      </trkpt>
      <trkpt lat="45.97752" lon="6.46898">
        <ele>1406</ele>
        <time>2018-04-14T08:41:30Z</time>
      </trkpt>
      <trkpt lat="45.9775" lon="6.46899">
        <ele>1406</ele>
        <time>2018-04-14T08:41:34Z</time>
      </trkpt>
      <trkpt lat="45.97751" lon="6.46899">
        <ele>1406</ele>
        <time>2018-04-14T08:41:38Z</time>
      </trkpt>
      <trkpt lat="45.97753" lon="6.46898">
        <ele>1406</ele>
        <time>2018-04-14T08:41:54Z</time>
      </trkpt>
      <trkpt lat="45.97754" lon="6.46899">
        <ele>1406</ele>
        <time>2018-04-14T08:41:57Z</time>
      </trkpt>
      <trkpt lat="45.97755" lon="6.46899">
        <ele>1406</ele>
        <time>2018-04-14T08:42:05Z</time>
      </trkpt>
      <trkpt lat="45.97755" lon="6.469">
        <ele>1406</ele>
        <time>2018-04-14T08:42:10Z</time>
      </trkpt>
      <trkpt lat="45.97755" lon="6.46899">
        <ele>1406</ele>
        <time>2018-04-14T08:42:24Z</time>
      </trkpt>
    </trkseg>
  </trk>
</gpx>